<?xml version="1.0" encoding="UTF-8" standalone="no" ?>
<gpx xmlns="http://www.topografix.com/GPX/1/1" xmlns:xsi="http://www.w3.org/2001/XMLSchema-instance" xsi:schemaLocation="http://www.topografix.com/GPX/1/1 http://www.topografix.com/GPX/1/1/gpx.xsd" version="1.1" creator="VisuGPX - https://www.visugpx.com">
  <metadata>
    <name>RSPFY-carrefour de Pecqueuse</name>
    <desc><![CDATA[marche nordique au départ du carrefour de Pecqueuse (entre Saint-Léger-en-Yvelines et Poigny La Forêt).]]></desc>
  </metadata>
  <trk>
    <name><![CDATA[2024-12-12 09:02]]></name>
    <desc><![CDATA[<p>Heure de départ: 09:02 12 déc. 2024<br/>Heure d'arrivée: 11:49 12 déc. 2024<br/>Distance: 13,4 km (02:47)<br/>Temps déplacement: 02:22<br/>Vitesse moyenne: 4,8 km/h<br/>Vitesse moyenne mouv.: 5,64 km/h<br/>Vitesse Max.: 9 km/h<br/>Altitude minimale: 119 m<br/>Altitude maximale: 187 m<br/>Vitesse de montée: 308,1 m/h<br/>Vitesse de descente: -264,2 m/h<br/>Gain d'altitude: 399 m<br/>Perte d'altitude: -389 m<br/>Temps de montée: 01:17<br/>Temps de descente: 01:28<br/></p><hr align="center" width="480" style="height: 2px; width: 517px"/>]]></desc>
    <trkseg>
      <trkpt lat="48.69546" lon="1.72738">
        <ele>159.7</ele>
        <time>2024-12-12T08:02:14Z</time>
      </trkpt>
      <trkpt lat="48.69538" lon="1.72727">
        <ele>159.7</ele>
        <time>2024-12-12T08:02:20Z</time>
      </trkpt>
      <trkpt lat="48.69547" lon="1.7272">
        <ele>159.3</ele>
        <time>2024-12-12T08:03:11Z</time>
      </trkpt>
      <trkpt lat="48.69552" lon="1.72708">
        <ele>159.1</ele>
        <time>2024-12-12T08:03:18Z</time>
      </trkpt>
      <trkpt lat="48.69561" lon="1.72702">
        <ele>159</ele>
        <time>2024-12-12T08:03:27Z</time>
      </trkpt>
      <trkpt lat="48.6957" lon="1.72703">
        <ele>159</ele>
        <time>2024-12-12T08:03:38Z</time>
      </trkpt>
      <trkpt lat="48.6958" lon="1.727">
        <ele>159</ele>
        <time>2024-12-12T08:03:44Z</time>
      </trkpt>
      <trkpt lat="48.6959" lon="1.72699">
        <ele>159</ele>
        <time>2024-12-12T08:03:52Z</time>
      </trkpt>
      <trkpt lat="48.69599" lon="1.72698">
        <ele>159</ele>
        <time>2024-12-12T08:04:00Z</time>
      </trkpt>
      <trkpt lat="48.69609" lon="1.72696">
        <ele>159</ele>
        <time>2024-12-12T08:04:07Z</time>
      </trkpt>
      <trkpt lat="48.69618" lon="1.72698">
        <ele>159</ele>
        <time>2024-12-12T08:04:13Z</time>
      </trkpt>
      <trkpt lat="48.69628" lon="1.72697">
        <ele>159</ele>
        <time>2024-12-12T08:04:20Z</time>
      </trkpt>
      <trkpt lat="48.69637" lon="1.72696">
        <ele>159</ele>
        <time>2024-12-12T08:04:25Z</time>
      </trkpt>
      <trkpt lat="48.69647" lon="1.72697">
        <ele>159</ele>
        <time>2024-12-12T08:04:31Z</time>
      </trkpt>
      <trkpt lat="48.69656" lon="1.72698">
        <ele>159.1</ele>
        <time>2024-12-12T08:04:37Z</time>
      </trkpt>
      <trkpt lat="48.69666" lon="1.72697">
        <ele>159.1</ele>
        <time>2024-12-12T08:04:43Z</time>
      </trkpt>
      <trkpt lat="48.69676" lon="1.72698">
        <ele>159.1</ele>
        <time>2024-12-12T08:04:49Z</time>
      </trkpt>
      <trkpt lat="48.69685" lon="1.72699">
        <ele>159.1</ele>
        <time>2024-12-12T08:04:55Z</time>
      </trkpt>
      <trkpt lat="48.69695" lon="1.72697">
        <ele>159.1</ele>
        <time>2024-12-12T08:05:02Z</time>
      </trkpt>
      <trkpt lat="48.69704" lon="1.72696">
        <ele>159.4</ele>
        <time>2024-12-12T08:05:08Z</time>
      </trkpt>
      <trkpt lat="48.69714" lon="1.72696">
        <ele>159.7</ele>
        <time>2024-12-12T08:05:15Z</time>
      </trkpt>
      <trkpt lat="48.69723" lon="1.72696">
        <ele>160</ele>
        <time>2024-12-12T08:05:22Z</time>
      </trkpt>
      <trkpt lat="48.69733" lon="1.72695">
        <ele>160</ele>
        <time>2024-12-12T08:05:30Z</time>
      </trkpt>
      <trkpt lat="48.69743" lon="1.72696">
        <ele>160</ele>
        <time>2024-12-12T08:05:36Z</time>
      </trkpt>
      <trkpt lat="48.69752" lon="1.72696">
        <ele>160</ele>
        <time>2024-12-12T08:05:45Z</time>
      </trkpt>
      <trkpt lat="48.69761" lon="1.72698">
        <ele>160.1</ele>
        <time>2024-12-12T08:05:52Z</time>
      </trkpt>
      <trkpt lat="48.69771" lon="1.72697">
        <ele>160.1</ele>
        <time>2024-12-12T08:05:59Z</time>
      </trkpt>
      <trkpt lat="48.69781" lon="1.72696">
        <ele>160.2</ele>
        <time>2024-12-12T08:06:07Z</time>
      </trkpt>
      <trkpt lat="48.6979" lon="1.72694">
        <ele>160.4</ele>
        <time>2024-12-12T08:06:12Z</time>
      </trkpt>
      <trkpt lat="48.698" lon="1.727">
        <ele>160.8</ele>
        <time>2024-12-12T08:06:19Z</time>
      </trkpt>
      <trkpt lat="48.6981" lon="1.727">
        <ele>161</ele>
        <time>2024-12-12T08:06:27Z</time>
      </trkpt>
      <trkpt lat="48.69819" lon="1.72698">
        <ele>161.1</ele>
        <time>2024-12-12T08:06:33Z</time>
      </trkpt>
      <trkpt lat="48.69828" lon="1.72695">
        <ele>161</ele>
        <time>2024-12-12T08:06:38Z</time>
      </trkpt>
      <trkpt lat="48.69838" lon="1.72694">
        <ele>161.2</ele>
        <time>2024-12-12T08:06:44Z</time>
      </trkpt>
      <trkpt lat="48.69848" lon="1.72694">
        <ele>161.5</ele>
        <time>2024-12-12T08:06:52Z</time>
      </trkpt>
      <trkpt lat="48.69857" lon="1.72695">
        <ele>161.9</ele>
        <time>2024-12-12T08:06:59Z</time>
      </trkpt>
      <trkpt lat="48.69867" lon="1.72696">
        <ele>162.1</ele>
        <time>2024-12-12T08:07:06Z</time>
      </trkpt>
      <trkpt lat="48.69877" lon="1.72696">
        <ele>162</ele>
        <time>2024-12-12T08:07:13Z</time>
      </trkpt>
      <trkpt lat="48.69886" lon="1.72694">
        <ele>162</ele>
        <time>2024-12-12T08:07:19Z</time>
      </trkpt>
      <trkpt lat="48.69895" lon="1.72693">
        <ele>162.2</ele>
        <time>2024-12-12T08:07:26Z</time>
      </trkpt>
      <trkpt lat="48.69904" lon="1.72693">
        <ele>162.6</ele>
        <time>2024-12-12T08:07:33Z</time>
      </trkpt>
      <trkpt lat="48.69914" lon="1.72692">
        <ele>162.9</ele>
        <time>2024-12-12T08:07:41Z</time>
      </trkpt>
      <trkpt lat="48.69923" lon="1.72693">
        <ele>163.2</ele>
        <time>2024-12-12T08:07:48Z</time>
      </trkpt>
      <trkpt lat="48.69934" lon="1.72694">
        <ele>163.6</ele>
        <time>2024-12-12T08:07:55Z</time>
      </trkpt>
      <trkpt lat="48.69943" lon="1.72695">
        <ele>163.9</ele>
        <time>2024-12-12T08:08:02Z</time>
      </trkpt>
      <trkpt lat="48.69953" lon="1.72695">
        <ele>164.3</ele>
        <time>2024-12-12T08:08:08Z</time>
      </trkpt>
      <trkpt lat="48.69962" lon="1.72692">
        <ele>164.7</ele>
        <time>2024-12-12T08:08:14Z</time>
      </trkpt>
      <trkpt lat="48.69972" lon="1.72691">
        <ele>165.1</ele>
        <time>2024-12-12T08:08:22Z</time>
      </trkpt>
      <trkpt lat="48.69981" lon="1.72691">
        <ele>165.7</ele>
        <time>2024-12-12T08:08:29Z</time>
      </trkpt>
      <trkpt lat="48.69991" lon="1.72692">
        <ele>166.4</ele>
        <time>2024-12-12T08:08:36Z</time>
      </trkpt>
      <trkpt lat="48.7" lon="1.72691">
        <ele>167</ele>
        <time>2024-12-12T08:08:42Z</time>
      </trkpt>
      <trkpt lat="48.70009" lon="1.72691">
        <ele>167</ele>
        <time>2024-12-12T08:08:48Z</time>
      </trkpt>
      <trkpt lat="48.70019" lon="1.7269">
        <ele>167.1</ele>
        <time>2024-12-12T08:08:54Z</time>
      </trkpt>
      <trkpt lat="48.70028" lon="1.72689">
        <ele>167.2</ele>
        <time>2024-12-12T08:09:00Z</time>
      </trkpt>
      <trkpt lat="48.70039" lon="1.7269">
        <ele>167.6</ele>
        <time>2024-12-12T08:09:07Z</time>
      </trkpt>
      <trkpt lat="48.70048" lon="1.72693">
        <ele>167.8</ele>
        <time>2024-12-12T08:09:14Z</time>
      </trkpt>
      <trkpt lat="48.70058" lon="1.72693">
        <ele>168.3</ele>
        <time>2024-12-12T08:09:21Z</time>
      </trkpt>
      <trkpt lat="48.70068" lon="1.72694">
        <ele>168.9</ele>
        <time>2024-12-12T08:09:29Z</time>
      </trkpt>
      <trkpt lat="48.70078" lon="1.72694">
        <ele>169.6</ele>
        <time>2024-12-12T08:09:38Z</time>
      </trkpt>
      <trkpt lat="48.70088" lon="1.72693">
        <ele>170.2</ele>
        <time>2024-12-12T08:09:44Z</time>
      </trkpt>
      <trkpt lat="48.70098" lon="1.7269">
        <ele>170.7</ele>
        <time>2024-12-12T08:09:50Z</time>
      </trkpt>
      <trkpt lat="48.70108" lon="1.72688">
        <ele>171.1</ele>
        <time>2024-12-12T08:09:56Z</time>
      </trkpt>
      <trkpt lat="48.70118" lon="1.72687">
        <ele>171.5</ele>
        <time>2024-12-12T08:10:03Z</time>
      </trkpt>
      <trkpt lat="48.70128" lon="1.72685">
        <ele>172</ele>
        <time>2024-12-12T08:10:10Z</time>
      </trkpt>
      <trkpt lat="48.70138" lon="1.72686">
        <ele>172.3</ele>
        <time>2024-12-12T08:10:16Z</time>
      </trkpt>
      <trkpt lat="48.70147" lon="1.72686">
        <ele>172.5</ele>
        <time>2024-12-12T08:10:22Z</time>
      </trkpt>
      <trkpt lat="48.70157" lon="1.72688">
        <ele>172.7</ele>
        <time>2024-12-12T08:10:28Z</time>
      </trkpt>
      <trkpt lat="48.70166" lon="1.72688">
        <ele>173</ele>
        <time>2024-12-12T08:10:34Z</time>
      </trkpt>
      <trkpt lat="48.70176" lon="1.72688">
        <ele>173.3</ele>
        <time>2024-12-12T08:10:40Z</time>
      </trkpt>
      <trkpt lat="48.70186" lon="1.72687">
        <ele>173.5</ele>
        <time>2024-12-12T08:10:47Z</time>
      </trkpt>
      <trkpt lat="48.70195" lon="1.72691">
        <ele>173.9</ele>
        <time>2024-12-12T08:10:54Z</time>
      </trkpt>
      <trkpt lat="48.70205" lon="1.72689">
        <ele>174.2</ele>
        <time>2024-12-12T08:11:00Z</time>
      </trkpt>
      <trkpt lat="48.70215" lon="1.72688">
        <ele>174.5</ele>
        <time>2024-12-12T08:11:08Z</time>
      </trkpt>
      <trkpt lat="48.70224" lon="1.72689">
        <ele>174.8</ele>
        <time>2024-12-12T08:11:15Z</time>
      </trkpt>
      <trkpt lat="48.70233" lon="1.7269">
        <ele>174.9</ele>
        <time>2024-12-12T08:11:21Z</time>
      </trkpt>
      <trkpt lat="48.70244" lon="1.72691">
        <ele>175</ele>
        <time>2024-12-12T08:11:28Z</time>
      </trkpt>
      <trkpt lat="48.70253" lon="1.72693">
        <ele>175.1</ele>
        <time>2024-12-12T08:11:35Z</time>
      </trkpt>
      <trkpt lat="48.70263" lon="1.72691">
        <ele>175.5</ele>
        <time>2024-12-12T08:11:42Z</time>
      </trkpt>
      <trkpt lat="48.70272" lon="1.72691">
        <ele>175.8</ele>
        <time>2024-12-12T08:11:49Z</time>
      </trkpt>
      <trkpt lat="48.70282" lon="1.72695">
        <ele>176</ele>
        <time>2024-12-12T08:11:57Z</time>
      </trkpt>
      <trkpt lat="48.70291" lon="1.72692">
        <ele>176</ele>
        <time>2024-12-12T08:12:04Z</time>
      </trkpt>
      <trkpt lat="48.70301" lon="1.72692">
        <ele>176</ele>
        <time>2024-12-12T08:12:10Z</time>
      </trkpt>
      <trkpt lat="48.70312" lon="1.72692">
        <ele>176</ele>
        <time>2024-12-12T08:12:17Z</time>
      </trkpt>
      <trkpt lat="48.70321" lon="1.72693">
        <ele>176</ele>
        <time>2024-12-12T08:12:24Z</time>
      </trkpt>
      <trkpt lat="48.7033" lon="1.72691">
        <ele>176</ele>
        <time>2024-12-12T08:12:30Z</time>
      </trkpt>
      <trkpt lat="48.70339" lon="1.7269">
        <ele>176</ele>
        <time>2024-12-12T08:12:36Z</time>
      </trkpt>
      <trkpt lat="48.70349" lon="1.72691">
        <ele>176</ele>
        <time>2024-12-12T08:12:42Z</time>
      </trkpt>
      <trkpt lat="48.70358" lon="1.72693">
        <ele>176</ele>
        <time>2024-12-12T08:12:48Z</time>
      </trkpt>
      <trkpt lat="48.70367" lon="1.72693">
        <ele>176</ele>
        <time>2024-12-12T08:12:54Z</time>
      </trkpt>
      <trkpt lat="48.70377" lon="1.72694">
        <ele>176</ele>
        <time>2024-12-12T08:13:03Z</time>
      </trkpt>
      <trkpt lat="48.70387" lon="1.72693">
        <ele>176</ele>
        <time>2024-12-12T08:13:09Z</time>
      </trkpt>
      <trkpt lat="48.70396" lon="1.72692">
        <ele>176</ele>
        <time>2024-12-12T08:13:16Z</time>
      </trkpt>
      <trkpt lat="48.70406" lon="1.72692">
        <ele>176</ele>
        <time>2024-12-12T08:13:23Z</time>
      </trkpt>
      <trkpt lat="48.70416" lon="1.72693">
        <ele>176</ele>
        <time>2024-12-12T08:13:30Z</time>
      </trkpt>
      <trkpt lat="48.70425" lon="1.72693">
        <ele>176</ele>
        <time>2024-12-12T08:13:36Z</time>
      </trkpt>
      <trkpt lat="48.70434" lon="1.72692">
        <ele>176</ele>
        <time>2024-12-12T08:13:43Z</time>
      </trkpt>
      <trkpt lat="48.70444" lon="1.72693">
        <ele>176</ele>
        <time>2024-12-12T08:13:49Z</time>
      </trkpt>
      <trkpt lat="48.70454" lon="1.72692">
        <ele>176</ele>
        <time>2024-12-12T08:13:54Z</time>
      </trkpt>
      <trkpt lat="48.70464" lon="1.72692">
        <ele>176</ele>
        <time>2024-12-12T08:14:00Z</time>
      </trkpt>
      <trkpt lat="48.70474" lon="1.72692">
        <ele>176</ele>
        <time>2024-12-12T08:14:07Z</time>
      </trkpt>
      <trkpt lat="48.70483" lon="1.72694">
        <ele>176</ele>
        <time>2024-12-12T08:14:14Z</time>
      </trkpt>
      <trkpt lat="48.70493" lon="1.72694">
        <ele>176</ele>
        <time>2024-12-12T08:14:21Z</time>
      </trkpt>
      <trkpt lat="48.70503" lon="1.72693">
        <ele>176</ele>
        <time>2024-12-12T08:14:27Z</time>
      </trkpt>
      <trkpt lat="48.70513" lon="1.72692">
        <ele>176</ele>
        <time>2024-12-12T08:14:34Z</time>
      </trkpt>
      <trkpt lat="48.70524" lon="1.72692">
        <ele>176</ele>
        <time>2024-12-12T08:14:41Z</time>
      </trkpt>
      <trkpt lat="48.70535" lon="1.72691">
        <ele>176</ele>
        <time>2024-12-12T08:14:47Z</time>
      </trkpt>
      <trkpt lat="48.70545" lon="1.7269">
        <ele>176</ele>
        <time>2024-12-12T08:14:54Z</time>
      </trkpt>
      <trkpt lat="48.70554" lon="1.72688">
        <ele>176</ele>
        <time>2024-12-12T08:14:59Z</time>
      </trkpt>
      <trkpt lat="48.70565" lon="1.72688">
        <ele>176</ele>
        <time>2024-12-12T08:15:05Z</time>
      </trkpt>
      <trkpt lat="48.70575" lon="1.72689">
        <ele>176</ele>
        <time>2024-12-12T08:15:12Z</time>
      </trkpt>
      <trkpt lat="48.70585" lon="1.72691">
        <ele>176</ele>
        <time>2024-12-12T08:15:19Z</time>
      </trkpt>
      <trkpt lat="48.70595" lon="1.72692">
        <ele>176</ele>
        <time>2024-12-12T08:15:26Z</time>
      </trkpt>
      <trkpt lat="48.70605" lon="1.72692">
        <ele>176</ele>
        <time>2024-12-12T08:15:32Z</time>
      </trkpt>
      <trkpt lat="48.70615" lon="1.7269">
        <ele>176</ele>
        <time>2024-12-12T08:15:37Z</time>
      </trkpt>
      <trkpt lat="48.70624" lon="1.7269">
        <ele>176.1</ele>
        <time>2024-12-12T08:15:44Z</time>
      </trkpt>
      <trkpt lat="48.70633" lon="1.72691">
        <ele>176.1</ele>
        <time>2024-12-12T08:15:54Z</time>
      </trkpt>
      <trkpt lat="48.70642" lon="1.72691">
        <ele>176.2</ele>
        <time>2024-12-12T08:15:59Z</time>
      </trkpt>
      <trkpt lat="48.70652" lon="1.72692">
        <ele>176.5</ele>
        <time>2024-12-12T08:16:05Z</time>
      </trkpt>
      <trkpt lat="48.70662" lon="1.7269">
        <ele>176.9</ele>
        <time>2024-12-12T08:16:11Z</time>
      </trkpt>
      <trkpt lat="48.70672" lon="1.72692">
        <ele>177</ele>
        <time>2024-12-12T08:16:17Z</time>
      </trkpt>
      <trkpt lat="48.70682" lon="1.72691">
        <ele>177</ele>
        <time>2024-12-12T08:16:24Z</time>
      </trkpt>
      <trkpt lat="48.70693" lon="1.72693">
        <ele>177</ele>
        <time>2024-12-12T08:16:31Z</time>
      </trkpt>
      <trkpt lat="48.70702" lon="1.72692">
        <ele>177</ele>
        <time>2024-12-12T08:16:37Z</time>
      </trkpt>
      <trkpt lat="48.70713" lon="1.72691">
        <ele>177</ele>
        <time>2024-12-12T08:16:43Z</time>
      </trkpt>
      <trkpt lat="48.70723" lon="1.7269">
        <ele>177</ele>
        <time>2024-12-12T08:16:49Z</time>
      </trkpt>
      <trkpt lat="48.70733" lon="1.7269">
        <ele>176.6</ele>
        <time>2024-12-12T08:16:55Z</time>
      </trkpt>
      <trkpt lat="48.70744" lon="1.7269">
        <ele>176.2</ele>
        <time>2024-12-12T08:17:02Z</time>
      </trkpt>
      <trkpt lat="48.70753" lon="1.72691">
        <ele>176</ele>
        <time>2024-12-12T08:17:08Z</time>
      </trkpt>
      <trkpt lat="48.70762" lon="1.72691">
        <ele>176</ele>
        <time>2024-12-12T08:17:14Z</time>
      </trkpt>
      <trkpt lat="48.70771" lon="1.7269">
        <ele>176</ele>
        <time>2024-12-12T08:17:20Z</time>
      </trkpt>
      <trkpt lat="48.70781" lon="1.72689">
        <ele>176</ele>
        <time>2024-12-12T08:17:27Z</time>
      </trkpt>
      <trkpt lat="48.70791" lon="1.72685">
        <ele>176</ele>
        <time>2024-12-12T08:17:32Z</time>
      </trkpt>
      <trkpt lat="48.708" lon="1.72687">
        <ele>176</ele>
        <time>2024-12-12T08:17:38Z</time>
      </trkpt>
      <trkpt lat="48.70809" lon="1.72688">
        <ele>175.9</ele>
        <time>2024-12-12T08:17:44Z</time>
      </trkpt>
      <trkpt lat="48.70819" lon="1.72687">
        <ele>175.5</ele>
        <time>2024-12-12T08:17:49Z</time>
      </trkpt>
      <trkpt lat="48.70829" lon="1.72688">
        <ele>175.1</ele>
        <time>2024-12-12T08:17:55Z</time>
      </trkpt>
      <trkpt lat="48.70838" lon="1.72688">
        <ele>174.9</ele>
        <time>2024-12-12T08:18:01Z</time>
      </trkpt>
      <trkpt lat="48.70847" lon="1.72689">
        <ele>174.6</ele>
        <time>2024-12-12T08:18:07Z</time>
      </trkpt>
      <trkpt lat="48.70856" lon="1.72689">
        <ele>174.3</ele>
        <time>2024-12-12T08:18:12Z</time>
      </trkpt>
      <trkpt lat="48.70866" lon="1.7269">
        <ele>174.1</ele>
        <time>2024-12-12T08:18:19Z</time>
      </trkpt>
      <trkpt lat="48.70875" lon="1.72691">
        <ele>174.1</ele>
        <time>2024-12-12T08:18:26Z</time>
      </trkpt>
      <trkpt lat="48.70885" lon="1.72687">
        <ele>174</ele>
        <time>2024-12-12T08:18:33Z</time>
      </trkpt>
      <trkpt lat="48.70895" lon="1.72689">
        <ele>173.8</ele>
        <time>2024-12-12T08:18:39Z</time>
      </trkpt>
      <trkpt lat="48.70903" lon="1.72693">
        <ele>173.5</ele>
        <time>2024-12-12T08:18:46Z</time>
      </trkpt>
      <trkpt lat="48.70913" lon="1.72691">
        <ele>173.2</ele>
        <time>2024-12-12T08:18:53Z</time>
      </trkpt>
      <trkpt lat="48.70922" lon="1.7269">
        <ele>173.3</ele>
        <time>2024-12-12T08:18:59Z</time>
      </trkpt>
      <trkpt lat="48.70931" lon="1.72688">
        <ele>173.6</ele>
        <time>2024-12-12T08:19:08Z</time>
      </trkpt>
      <trkpt lat="48.70942" lon="1.72689">
        <ele>173.9</ele>
        <time>2024-12-12T08:19:21Z</time>
      </trkpt>
      <trkpt lat="48.70951" lon="1.72688">
        <ele>173.7</ele>
        <time>2024-12-12T08:19:34Z</time>
      </trkpt>
      <trkpt lat="48.70961" lon="1.7269">
        <ele>173.4</ele>
        <time>2024-12-12T08:19:46Z</time>
      </trkpt>
      <trkpt lat="48.70964" lon="1.72703">
        <ele>173.2</ele>
        <time>2024-12-12T08:20:09Z</time>
      </trkpt>
      <trkpt lat="48.70973" lon="1.72699">
        <ele>173</ele>
        <time>2024-12-12T08:20:31Z</time>
      </trkpt>
      <trkpt lat="48.70982" lon="1.72693">
        <ele>173</ele>
        <time>2024-12-12T08:20:47Z</time>
      </trkpt>
      <trkpt lat="48.70989" lon="1.72685">
        <ele>173</ele>
        <time>2024-12-12T08:21:00Z</time>
      </trkpt>
      <trkpt lat="48.70997" lon="1.72676">
        <ele>173</ele>
        <time>2024-12-12T08:21:10Z</time>
      </trkpt>
      <trkpt lat="48.71006" lon="1.72672">
        <ele>173</ele>
        <time>2024-12-12T08:21:19Z</time>
      </trkpt>
      <trkpt lat="48.71015" lon="1.72665">
        <ele>173</ele>
        <time>2024-12-12T08:21:27Z</time>
      </trkpt>
      <trkpt lat="48.71022" lon="1.72655">
        <ele>173</ele>
        <time>2024-12-12T08:21:35Z</time>
      </trkpt>
      <trkpt lat="48.71032" lon="1.72658">
        <ele>173.1</ele>
        <time>2024-12-12T08:21:51Z</time>
      </trkpt>
      <trkpt lat="48.71042" lon="1.7266">
        <ele>173.4</ele>
        <time>2024-12-12T08:21:58Z</time>
      </trkpt>
      <trkpt lat="48.7105" lon="1.72652">
        <ele>173.4</ele>
        <time>2024-12-12T08:22:05Z</time>
      </trkpt>
      <trkpt lat="48.71058" lon="1.72644">
        <ele>173.2</ele>
        <time>2024-12-12T08:22:11Z</time>
      </trkpt>
      <trkpt lat="48.71063" lon="1.72633">
        <ele>173.4</ele>
        <time>2024-12-12T08:22:18Z</time>
      </trkpt>
      <trkpt lat="48.71071" lon="1.72625">
        <ele>173.8</ele>
        <time>2024-12-12T08:22:25Z</time>
      </trkpt>
      <trkpt lat="48.7108" lon="1.7262">
        <ele>174</ele>
        <time>2024-12-12T08:22:32Z</time>
      </trkpt>
      <trkpt lat="48.71089" lon="1.72613">
        <ele>174.2</ele>
        <time>2024-12-12T08:22:41Z</time>
      </trkpt>
      <trkpt lat="48.71097" lon="1.72605">
        <ele>174.4</ele>
        <time>2024-12-12T08:22:48Z</time>
      </trkpt>
      <trkpt lat="48.71106" lon="1.72599">
        <ele>174.5</ele>
        <time>2024-12-12T08:22:56Z</time>
      </trkpt>
      <trkpt lat="48.71115" lon="1.72596">
        <ele>174.5</ele>
        <time>2024-12-12T08:23:03Z</time>
      </trkpt>
      <trkpt lat="48.71124" lon="1.72589">
        <ele>174.6</ele>
        <time>2024-12-12T08:23:10Z</time>
      </trkpt>
      <trkpt lat="48.71132" lon="1.72581">
        <ele>174.7</ele>
        <time>2024-12-12T08:23:17Z</time>
      </trkpt>
      <trkpt lat="48.7114" lon="1.72573">
        <ele>175</ele>
        <time>2024-12-12T08:23:24Z</time>
      </trkpt>
      <trkpt lat="48.71147" lon="1.72565">
        <ele>175.3</ele>
        <time>2024-12-12T08:23:32Z</time>
      </trkpt>
      <trkpt lat="48.71156" lon="1.72557">
        <ele>175.6</ele>
        <time>2024-12-12T08:23:40Z</time>
      </trkpt>
      <trkpt lat="48.71165" lon="1.72549">
        <ele>175.7</ele>
        <time>2024-12-12T08:23:47Z</time>
      </trkpt>
      <trkpt lat="48.71174" lon="1.72541">
        <ele>175.6</ele>
        <time>2024-12-12T08:23:53Z</time>
      </trkpt>
      <trkpt lat="48.71183" lon="1.72534">
        <ele>175.7</ele>
        <time>2024-12-12T08:23:58Z</time>
      </trkpt>
      <trkpt lat="48.71191" lon="1.72527">
        <ele>175.9</ele>
        <time>2024-12-12T08:24:04Z</time>
      </trkpt>
      <trkpt lat="48.712" lon="1.7252">
        <ele>176.2</ele>
        <time>2024-12-12T08:24:11Z</time>
      </trkpt>
      <trkpt lat="48.71208" lon="1.72511">
        <ele>176.5</ele>
        <time>2024-12-12T08:24:16Z</time>
      </trkpt>
      <trkpt lat="48.71216" lon="1.72502">
        <ele>176.8</ele>
        <time>2024-12-12T08:24:20Z</time>
      </trkpt>
      <trkpt lat="48.71225" lon="1.72496">
        <ele>176.9</ele>
        <time>2024-12-12T08:24:25Z</time>
      </trkpt>
      <trkpt lat="48.71233" lon="1.72485">
        <ele>176.7</ele>
        <time>2024-12-12T08:24:32Z</time>
      </trkpt>
      <trkpt lat="48.71241" lon="1.72478">
        <ele>176.8</ele>
        <time>2024-12-12T08:24:38Z</time>
      </trkpt>
      <trkpt lat="48.71249" lon="1.7247">
        <ele>176.9</ele>
        <time>2024-12-12T08:24:46Z</time>
      </trkpt>
      <trkpt lat="48.71257" lon="1.72461">
        <ele>175.6</ele>
        <time>2024-12-12T08:24:54Z</time>
      </trkpt>
      <trkpt lat="48.71266" lon="1.72456">
        <ele>174.2</ele>
        <time>2024-12-12T08:25:01Z</time>
      </trkpt>
      <trkpt lat="48.71273" lon="1.72448">
        <ele>172.8</ele>
        <time>2024-12-12T08:25:10Z</time>
      </trkpt>
      <trkpt lat="48.71282" lon="1.72442">
        <ele>170.2</ele>
        <time>2024-12-12T08:25:16Z</time>
      </trkpt>
      <trkpt lat="48.7129" lon="1.72434">
        <ele>166.7</ele>
        <time>2024-12-12T08:25:26Z</time>
      </trkpt>
      <trkpt lat="48.71296" lon="1.72423">
        <ele>164</ele>
        <time>2024-12-12T08:25:36Z</time>
      </trkpt>
      <trkpt lat="48.71295" lon="1.72409">
        <ele>164</ele>
        <time>2024-12-12T08:25:44Z</time>
      </trkpt>
      <trkpt lat="48.71299" lon="1.72396">
        <ele>162.3</ele>
        <time>2024-12-12T08:25:53Z</time>
      </trkpt>
      <trkpt lat="48.71305" lon="1.72386">
        <ele>160.3</ele>
        <time>2024-12-12T08:26:00Z</time>
      </trkpt>
      <trkpt lat="48.71303" lon="1.72372">
        <ele>162.5</ele>
        <time>2024-12-12T08:26:07Z</time>
      </trkpt>
      <trkpt lat="48.71296" lon="1.72365">
        <ele>165.8</ele>
        <time>2024-12-12T08:26:12Z</time>
      </trkpt>
      <trkpt lat="48.713" lon="1.72351">
        <ele>165.4</ele>
        <time>2024-12-12T08:26:21Z</time>
      </trkpt>
      <trkpt lat="48.7131" lon="1.72345">
        <ele>162.6</ele>
        <time>2024-12-12T08:26:29Z</time>
      </trkpt>
      <trkpt lat="48.71316" lon="1.72335">
        <ele>160.9</ele>
        <time>2024-12-12T08:26:36Z</time>
      </trkpt>
      <trkpt lat="48.71322" lon="1.72324">
        <ele>160</ele>
        <time>2024-12-12T08:26:42Z</time>
      </trkpt>
      <trkpt lat="48.71328" lon="1.72312">
        <ele>158.5</ele>
        <time>2024-12-12T08:26:49Z</time>
      </trkpt>
      <trkpt lat="48.71334" lon="1.723">
        <ele>156.9</ele>
        <time>2024-12-12T08:27:01Z</time>
      </trkpt>
      <trkpt lat="48.71342" lon="1.72292">
        <ele>154.3</ele>
        <time>2024-12-12T08:27:10Z</time>
      </trkpt>
      <trkpt lat="48.71351" lon="1.72288">
        <ele>151.4</ele>
        <time>2024-12-12T08:27:20Z</time>
      </trkpt>
      <trkpt lat="48.71352" lon="1.72272">
        <ele>151.2</ele>
        <time>2024-12-12T08:27:28Z</time>
      </trkpt>
      <trkpt lat="48.71344" lon="1.72263">
        <ele>154</ele>
        <time>2024-12-12T08:27:34Z</time>
      </trkpt>
      <trkpt lat="48.71349" lon="1.72251">
        <ele>152.9</ele>
        <time>2024-12-12T08:27:44Z</time>
      </trkpt>
      <trkpt lat="48.71354" lon="1.72237">
        <ele>151.4</ele>
        <time>2024-12-12T08:27:51Z</time>
      </trkpt>
      <trkpt lat="48.7136" lon="1.72226">
        <ele>149.4</ele>
        <time>2024-12-12T08:27:58Z</time>
      </trkpt>
      <trkpt lat="48.71363" lon="1.72212">
        <ele>149</ele>
        <time>2024-12-12T08:28:05Z</time>
      </trkpt>
      <trkpt lat="48.71367" lon="1.722">
        <ele>148.2</ele>
        <time>2024-12-12T08:28:13Z</time>
      </trkpt>
      <trkpt lat="48.71374" lon="1.72188">
        <ele>146.7</ele>
        <time>2024-12-12T08:28:20Z</time>
      </trkpt>
      <trkpt lat="48.7138" lon="1.72178">
        <ele>145.1</ele>
        <time>2024-12-12T08:28:30Z</time>
      </trkpt>
      <trkpt lat="48.71386" lon="1.72166">
        <ele>143.6</ele>
        <time>2024-12-12T08:28:39Z</time>
      </trkpt>
      <trkpt lat="48.71395" lon="1.72159">
        <ele>141.8</ele>
        <time>2024-12-12T08:28:47Z</time>
      </trkpt>
      <trkpt lat="48.71404" lon="1.72154">
        <ele>139.9</ele>
        <time>2024-12-12T08:28:56Z</time>
      </trkpt>
      <trkpt lat="48.71411" lon="1.72143">
        <ele>138.4</ele>
        <time>2024-12-12T08:29:04Z</time>
      </trkpt>
      <trkpt lat="48.71416" lon="1.7213">
        <ele>136.8</ele>
        <time>2024-12-12T08:29:11Z</time>
      </trkpt>
      <trkpt lat="48.71419" lon="1.72116">
        <ele>136</ele>
        <time>2024-12-12T08:29:20Z</time>
      </trkpt>
      <trkpt lat="48.71421" lon="1.72102">
        <ele>135.3</ele>
        <time>2024-12-12T08:29:28Z</time>
      </trkpt>
      <trkpt lat="48.71431" lon="1.721">
        <ele>134.6</ele>
        <time>2024-12-12T08:29:38Z</time>
      </trkpt>
      <trkpt lat="48.71426" lon="1.72088">
        <ele>134.4</ele>
        <time>2024-12-12T08:30:05Z</time>
      </trkpt>
      <trkpt lat="48.71422" lon="1.72075">
        <ele>134.6</ele>
        <time>2024-12-12T08:30:37Z</time>
      </trkpt>
      <trkpt lat="48.71418" lon="1.72063">
        <ele>134.9</ele>
        <time>2024-12-12T08:30:51Z</time>
      </trkpt>
      <trkpt lat="48.71409" lon="1.7206">
        <ele>135.4</ele>
        <time>2024-12-12T08:31:35Z</time>
      </trkpt>
      <trkpt lat="48.714" lon="1.72055">
        <ele>135.6</ele>
        <time>2024-12-12T08:31:49Z</time>
      </trkpt>
      <trkpt lat="48.71394" lon="1.72044">
        <ele>136.1</ele>
        <time>2024-12-12T08:32:18Z</time>
      </trkpt>
      <trkpt lat="48.71386" lon="1.72036">
        <ele>136.8</ele>
        <time>2024-12-12T08:32:30Z</time>
      </trkpt>
      <trkpt lat="48.71378" lon="1.72029">
        <ele>137.4</ele>
        <time>2024-12-12T08:32:40Z</time>
      </trkpt>
      <trkpt lat="48.71371" lon="1.72019">
        <ele>137.6</ele>
        <time>2024-12-12T08:32:49Z</time>
      </trkpt>
      <trkpt lat="48.71363" lon="1.72009">
        <ele>137.9</ele>
        <time>2024-12-12T08:32:57Z</time>
      </trkpt>
      <trkpt lat="48.71355" lon="1.72002">
        <ele>138.4</ele>
        <time>2024-12-12T08:33:04Z</time>
      </trkpt>
      <trkpt lat="48.71348" lon="1.71991">
        <ele>139.6</ele>
        <time>2024-12-12T08:33:12Z</time>
      </trkpt>
      <trkpt lat="48.71341" lon="1.71981">
        <ele>140.2</ele>
        <time>2024-12-12T08:33:21Z</time>
      </trkpt>
      <trkpt lat="48.71332" lon="1.71974">
        <ele>140.1</ele>
        <time>2024-12-12T08:33:29Z</time>
      </trkpt>
      <trkpt lat="48.71323" lon="1.7197">
        <ele>141.1</ele>
        <time>2024-12-12T08:33:36Z</time>
      </trkpt>
      <trkpt lat="48.71317" lon="1.71959">
        <ele>143.1</ele>
        <time>2024-12-12T08:33:45Z</time>
      </trkpt>
      <trkpt lat="48.71319" lon="1.71944">
        <ele>145.4</ele>
        <time>2024-12-12T08:33:55Z</time>
      </trkpt>
      <trkpt lat="48.71322" lon="1.71931">
        <ele>147.4</ele>
        <time>2024-12-12T08:34:05Z</time>
      </trkpt>
      <trkpt lat="48.7133" lon="1.71921">
        <ele>149.9</ele>
        <time>2024-12-12T08:34:15Z</time>
      </trkpt>
      <trkpt lat="48.71334" lon="1.71909">
        <ele>150.2</ele>
        <time>2024-12-12T08:34:25Z</time>
      </trkpt>
      <trkpt lat="48.71339" lon="1.71897">
        <ele>149</ele>
        <time>2024-12-12T08:34:33Z</time>
      </trkpt>
      <trkpt lat="48.71342" lon="1.71883">
        <ele>148</ele>
        <time>2024-12-12T08:34:43Z</time>
      </trkpt>
      <trkpt lat="48.71342" lon="1.71869">
        <ele>147.4</ele>
        <time>2024-12-12T08:34:50Z</time>
      </trkpt>
      <trkpt lat="48.71336" lon="1.71858">
        <ele>147</ele>
        <time>2024-12-12T08:34:56Z</time>
      </trkpt>
      <trkpt lat="48.71329" lon="1.71847">
        <ele>147.3</ele>
        <time>2024-12-12T08:35:02Z</time>
      </trkpt>
      <trkpt lat="48.71322" lon="1.71836">
        <ele>147.8</ele>
        <time>2024-12-12T08:35:09Z</time>
      </trkpt>
      <trkpt lat="48.71314" lon="1.71827">
        <ele>148.4</ele>
        <time>2024-12-12T08:35:25Z</time>
      </trkpt>
      <trkpt lat="48.71305" lon="1.71823">
        <ele>149.1</ele>
        <time>2024-12-12T08:35:33Z</time>
      </trkpt>
      <trkpt lat="48.71296" lon="1.71816">
        <ele>149.8</ele>
        <time>2024-12-12T08:35:41Z</time>
      </trkpt>
      <trkpt lat="48.71287" lon="1.71813">
        <ele>150.5</ele>
        <time>2024-12-12T08:35:48Z</time>
      </trkpt>
      <trkpt lat="48.71278" lon="1.71809">
        <ele>151.1</ele>
        <time>2024-12-12T08:35:55Z</time>
      </trkpt>
      <trkpt lat="48.71268" lon="1.71803">
        <ele>152.3</ele>
        <time>2024-12-12T08:36:02Z</time>
      </trkpt>
      <trkpt lat="48.71258" lon="1.718">
        <ele>153.6</ele>
        <time>2024-12-12T08:36:09Z</time>
      </trkpt>
      <trkpt lat="48.7125" lon="1.71796">
        <ele>154.7</ele>
        <time>2024-12-12T08:36:15Z</time>
      </trkpt>
      <trkpt lat="48.7124" lon="1.71794">
        <ele>155.2</ele>
        <time>2024-12-12T08:36:21Z</time>
      </trkpt>
      <trkpt lat="48.7123" lon="1.71794">
        <ele>155.7</ele>
        <time>2024-12-12T08:36:28Z</time>
      </trkpt>
      <trkpt lat="48.7122" lon="1.71794">
        <ele>156.4</ele>
        <time>2024-12-12T08:36:36Z</time>
      </trkpt>
      <trkpt lat="48.7121" lon="1.7179">
        <ele>156.7</ele>
        <time>2024-12-12T08:36:44Z</time>
      </trkpt>
      <trkpt lat="48.71201" lon="1.71784">
        <ele>156.6</ele>
        <time>2024-12-12T08:36:51Z</time>
      </trkpt>
      <trkpt lat="48.71192" lon="1.71779">
        <ele>156.8</ele>
        <time>2024-12-12T08:36:58Z</time>
      </trkpt>
      <trkpt lat="48.71183" lon="1.71774">
        <ele>158.2</ele>
        <time>2024-12-12T08:37:06Z</time>
      </trkpt>
      <trkpt lat="48.71175" lon="1.71765">
        <ele>159.2</ele>
        <time>2024-12-12T08:37:13Z</time>
      </trkpt>
      <trkpt lat="48.71168" lon="1.71755">
        <ele>159.9</ele>
        <time>2024-12-12T08:37:20Z</time>
      </trkpt>
      <trkpt lat="48.71161" lon="1.71746">
        <ele>161.3</ele>
        <time>2024-12-12T08:37:27Z</time>
      </trkpt>
      <trkpt lat="48.71154" lon="1.71737">
        <ele>162.6</ele>
        <time>2024-12-12T08:37:34Z</time>
      </trkpt>
      <trkpt lat="48.71147" lon="1.71728">
        <ele>163.7</ele>
        <time>2024-12-12T08:37:41Z</time>
      </trkpt>
      <trkpt lat="48.7114" lon="1.71718">
        <ele>164.6</ele>
        <time>2024-12-12T08:37:49Z</time>
      </trkpt>
      <trkpt lat="48.71134" lon="1.71707">
        <ele>165.5</ele>
        <time>2024-12-12T08:37:55Z</time>
      </trkpt>
      <trkpt lat="48.71128" lon="1.71697">
        <ele>166.2</ele>
        <time>2024-12-12T08:38:02Z</time>
      </trkpt>
      <trkpt lat="48.7112" lon="1.71689">
        <ele>166.6</ele>
        <time>2024-12-12T08:38:08Z</time>
      </trkpt>
      <trkpt lat="48.71112" lon="1.7168">
        <ele>167.4</ele>
        <time>2024-12-12T08:38:15Z</time>
      </trkpt>
      <trkpt lat="48.71103" lon="1.71675">
        <ele>168.7</ele>
        <time>2024-12-12T08:38:22Z</time>
      </trkpt>
      <trkpt lat="48.71095" lon="1.71669">
        <ele>169.8</ele>
        <time>2024-12-12T08:38:29Z</time>
      </trkpt>
      <trkpt lat="48.71086" lon="1.7166">
        <ele>171</ele>
        <time>2024-12-12T08:38:36Z</time>
      </trkpt>
      <trkpt lat="48.71079" lon="1.71652">
        <ele>172.3</ele>
        <time>2024-12-12T08:38:42Z</time>
      </trkpt>
      <trkpt lat="48.71071" lon="1.71645">
        <ele>173.4</ele>
        <time>2024-12-12T08:38:49Z</time>
      </trkpt>
      <trkpt lat="48.71064" lon="1.71636">
        <ele>174.2</ele>
        <time>2024-12-12T08:38:56Z</time>
      </trkpt>
      <trkpt lat="48.71056" lon="1.71629">
        <ele>175.2</ele>
        <time>2024-12-12T08:39:04Z</time>
      </trkpt>
      <trkpt lat="48.71046" lon="1.71622">
        <ele>175.9</ele>
        <time>2024-12-12T08:39:11Z</time>
      </trkpt>
      <trkpt lat="48.71038" lon="1.71615">
        <ele>176.7</ele>
        <time>2024-12-12T08:39:19Z</time>
      </trkpt>
      <trkpt lat="48.7103" lon="1.71608">
        <ele>177.5</ele>
        <time>2024-12-12T08:39:26Z</time>
      </trkpt>
      <trkpt lat="48.71021" lon="1.71603">
        <ele>178.1</ele>
        <time>2024-12-12T08:39:34Z</time>
      </trkpt>
      <trkpt lat="48.71011" lon="1.71603">
        <ele>178.9</ele>
        <time>2024-12-12T08:39:42Z</time>
      </trkpt>
      <trkpt lat="48.7102" lon="1.71599">
        <ele>177.9</ele>
        <time>2024-12-12T08:42:44Z</time>
      </trkpt>
      <trkpt lat="48.71028" lon="1.71591">
        <ele>176.5</ele>
        <time>2024-12-12T08:42:54Z</time>
      </trkpt>
      <trkpt lat="48.71037" lon="1.71586">
        <ele>173.9</ele>
        <time>2024-12-12T08:43:03Z</time>
      </trkpt>
      <trkpt lat="48.71044" lon="1.71577">
        <ele>171.6</ele>
        <time>2024-12-12T08:43:18Z</time>
      </trkpt>
      <trkpt lat="48.71051" lon="1.71567">
        <ele>169.9</ele>
        <time>2024-12-12T08:43:30Z</time>
      </trkpt>
      <trkpt lat="48.71054" lon="1.71555">
        <ele>169.1</ele>
        <time>2024-12-12T08:43:41Z</time>
      </trkpt>
      <trkpt lat="48.71052" lon="1.71541">
        <ele>168.3</ele>
        <time>2024-12-12T08:43:47Z</time>
      </trkpt>
      <trkpt lat="48.7105" lon="1.71526">
        <ele>167.2</ele>
        <time>2024-12-12T08:43:54Z</time>
      </trkpt>
      <trkpt lat="48.71047" lon="1.71511">
        <ele>166.2</ele>
        <time>2024-12-12T08:44:00Z</time>
      </trkpt>
      <trkpt lat="48.71046" lon="1.71496">
        <ele>165</ele>
        <time>2024-12-12T08:44:06Z</time>
      </trkpt>
      <trkpt lat="48.71045" lon="1.71481">
        <ele>163.9</ele>
        <time>2024-12-12T08:44:12Z</time>
      </trkpt>
      <trkpt lat="48.71049" lon="1.71468">
        <ele>162.3</ele>
        <time>2024-12-12T08:44:24Z</time>
      </trkpt>
      <trkpt lat="48.71054" lon="1.71458">
        <ele>160.5</ele>
        <time>2024-12-12T08:44:34Z</time>
      </trkpt>
      <trkpt lat="48.71055" lon="1.71442">
        <ele>158.9</ele>
        <time>2024-12-12T08:44:42Z</time>
      </trkpt>
      <trkpt lat="48.71055" lon="1.71427">
        <ele>157.8</ele>
        <time>2024-12-12T08:44:49Z</time>
      </trkpt>
      <trkpt lat="48.71056" lon="1.71412">
        <ele>156.7</ele>
        <time>2024-12-12T08:44:59Z</time>
      </trkpt>
      <trkpt lat="48.71061" lon="1.714">
        <ele>155.8</ele>
        <time>2024-12-12T08:45:11Z</time>
      </trkpt>
      <trkpt lat="48.71068" lon="1.71392">
        <ele>155.2</ele>
        <time>2024-12-12T08:45:21Z</time>
      </trkpt>
      <trkpt lat="48.71076" lon="1.71382">
        <ele>154.6</ele>
        <time>2024-12-12T08:45:33Z</time>
      </trkpt>
      <trkpt lat="48.71079" lon="1.71367">
        <ele>153.6</ele>
        <time>2024-12-12T08:45:39Z</time>
      </trkpt>
      <trkpt lat="48.71081" lon="1.71352">
        <ele>152.8</ele>
        <time>2024-12-12T08:45:45Z</time>
      </trkpt>
      <trkpt lat="48.71083" lon="1.71339">
        <ele>152.2</ele>
        <time>2024-12-12T08:45:52Z</time>
      </trkpt>
      <trkpt lat="48.71082" lon="1.71322">
        <ele>152.5</ele>
        <time>2024-12-12T08:45:57Z</time>
      </trkpt>
      <trkpt lat="48.71081" lon="1.71308">
        <ele>152.9</ele>
        <time>2024-12-12T08:46:01Z</time>
      </trkpt>
      <trkpt lat="48.71081" lon="1.71292">
        <ele>154.4</ele>
        <time>2024-12-12T08:46:05Z</time>
      </trkpt>
      <trkpt lat="48.71083" lon="1.71278">
        <ele>155.9</ele>
        <time>2024-12-12T08:46:10Z</time>
      </trkpt>
      <trkpt lat="48.71084" lon="1.71262">
        <ele>156.5</ele>
        <time>2024-12-12T08:46:15Z</time>
      </trkpt>
      <trkpt lat="48.71087" lon="1.71246">
        <ele>156.1</ele>
        <time>2024-12-12T08:46:20Z</time>
      </trkpt>
      <trkpt lat="48.71088" lon="1.71232">
        <ele>154.3</ele>
        <time>2024-12-12T08:46:25Z</time>
      </trkpt>
      <trkpt lat="48.71094" lon="1.71221">
        <ele>152.9</ele>
        <time>2024-12-12T08:46:32Z</time>
      </trkpt>
      <trkpt lat="48.711" lon="1.71209">
        <ele>152</ele>
        <time>2024-12-12T08:46:38Z</time>
      </trkpt>
      <trkpt lat="48.71107" lon="1.71198">
        <ele>151.7</ele>
        <time>2024-12-12T08:46:45Z</time>
      </trkpt>
      <trkpt lat="48.71114" lon="1.71188">
        <ele>151.3</ele>
        <time>2024-12-12T08:46:53Z</time>
      </trkpt>
      <trkpt lat="48.7112" lon="1.71177">
        <ele>150.4</ele>
        <time>2024-12-12T08:46:59Z</time>
      </trkpt>
      <trkpt lat="48.71127" lon="1.71166">
        <ele>149.9</ele>
        <time>2024-12-12T08:47:04Z</time>
      </trkpt>
      <trkpt lat="48.71132" lon="1.71154">
        <ele>149.2</ele>
        <time>2024-12-12T08:47:09Z</time>
      </trkpt>
      <trkpt lat="48.7114" lon="1.71144">
        <ele>149.3</ele>
        <time>2024-12-12T08:47:15Z</time>
      </trkpt>
      <trkpt lat="48.71143" lon="1.71129">
        <ele>148.8</ele>
        <time>2024-12-12T08:47:21Z</time>
      </trkpt>
      <trkpt lat="48.7115" lon="1.71117">
        <ele>148.9</ele>
        <time>2024-12-12T08:47:27Z</time>
      </trkpt>
      <trkpt lat="48.71156" lon="1.71105">
        <ele>148.4</ele>
        <time>2024-12-12T08:47:36Z</time>
      </trkpt>
      <trkpt lat="48.71163" lon="1.71096">
        <ele>147.9</ele>
        <time>2024-12-12T08:47:43Z</time>
      </trkpt>
      <trkpt lat="48.7117" lon="1.71087">
        <ele>146.8</ele>
        <time>2024-12-12T08:47:51Z</time>
      </trkpt>
      <trkpt lat="48.71177" lon="1.71078">
        <ele>145.3</ele>
        <time>2024-12-12T08:47:58Z</time>
      </trkpt>
      <trkpt lat="48.71184" lon="1.71067">
        <ele>143.4</ele>
        <time>2024-12-12T08:48:05Z</time>
      </trkpt>
      <trkpt lat="48.71191" lon="1.71057">
        <ele>141.3</ele>
        <time>2024-12-12T08:48:17Z</time>
      </trkpt>
      <trkpt lat="48.712" lon="1.71052">
        <ele>140.8</ele>
        <time>2024-12-12T08:48:23Z</time>
      </trkpt>
      <trkpt lat="48.71208" lon="1.71045">
        <ele>140.2</ele>
        <time>2024-12-12T08:48:31Z</time>
      </trkpt>
      <trkpt lat="48.71215" lon="1.71033">
        <ele>139.4</ele>
        <time>2024-12-12T08:48:38Z</time>
      </trkpt>
      <trkpt lat="48.71216" lon="1.7102">
        <ele>138.7</ele>
        <time>2024-12-12T08:48:46Z</time>
      </trkpt>
      <trkpt lat="48.71217" lon="1.71005">
        <ele>138.2</ele>
        <time>2024-12-12T08:48:54Z</time>
      </trkpt>
      <trkpt lat="48.71224" lon="1.70996">
        <ele>137.7</ele>
        <time>2024-12-12T08:49:06Z</time>
      </trkpt>
      <trkpt lat="48.71223" lon="1.70981">
        <ele>136.7</ele>
        <time>2024-12-12T08:49:13Z</time>
      </trkpt>
      <trkpt lat="48.71221" lon="1.70968">
        <ele>135.9</ele>
        <time>2024-12-12T08:49:19Z</time>
      </trkpt>
      <trkpt lat="48.71216" lon="1.70956">
        <ele>135.8</ele>
        <time>2024-12-12T08:49:24Z</time>
      </trkpt>
      <trkpt lat="48.71214" lon="1.70942">
        <ele>135.6</ele>
        <time>2024-12-12T08:49:32Z</time>
      </trkpt>
      <trkpt lat="48.71216" lon="1.70928">
        <ele>135.4</ele>
        <time>2024-12-12T08:49:40Z</time>
      </trkpt>
      <trkpt lat="48.71226" lon="1.70926">
        <ele>134.9</ele>
        <time>2024-12-12T08:49:51Z</time>
      </trkpt>
      <trkpt lat="48.71225" lon="1.70911">
        <ele>134.9</ele>
        <time>2024-12-12T08:49:59Z</time>
      </trkpt>
      <trkpt lat="48.71217" lon="1.70899">
        <ele>135.3</ele>
        <time>2024-12-12T08:50:04Z</time>
      </trkpt>
      <trkpt lat="48.7121" lon="1.70889">
        <ele>135.9</ele>
        <time>2024-12-12T08:50:10Z</time>
      </trkpt>
      <trkpt lat="48.71203" lon="1.70879">
        <ele>137.4</ele>
        <time>2024-12-12T08:50:15Z</time>
      </trkpt>
      <trkpt lat="48.71196" lon="1.70869">
        <ele>139</ele>
        <time>2024-12-12T08:50:20Z</time>
      </trkpt>
      <trkpt lat="48.71191" lon="1.70857">
        <ele>140.8</ele>
        <time>2024-12-12T08:50:25Z</time>
      </trkpt>
      <trkpt lat="48.71185" lon="1.70846">
        <ele>142.8</ele>
        <time>2024-12-12T08:50:31Z</time>
      </trkpt>
      <trkpt lat="48.71178" lon="1.70837">
        <ele>144.7</ele>
        <time>2024-12-12T08:50:37Z</time>
      </trkpt>
      <trkpt lat="48.71172" lon="1.70827">
        <ele>146</ele>
        <time>2024-12-12T08:50:44Z</time>
      </trkpt>
      <trkpt lat="48.71165" lon="1.70816">
        <ele>147.3</ele>
        <time>2024-12-12T08:50:52Z</time>
      </trkpt>
      <trkpt lat="48.71158" lon="1.70805">
        <ele>148.6</ele>
        <time>2024-12-12T08:51:01Z</time>
      </trkpt>
      <trkpt lat="48.71152" lon="1.70794">
        <ele>149.7</ele>
        <time>2024-12-12T08:51:10Z</time>
      </trkpt>
      <trkpt lat="48.71145" lon="1.70783">
        <ele>150.9</ele>
        <time>2024-12-12T08:51:18Z</time>
      </trkpt>
      <trkpt lat="48.71139" lon="1.70772">
        <ele>152.2</ele>
        <time>2024-12-12T08:51:25Z</time>
      </trkpt>
      <trkpt lat="48.71132" lon="1.70762">
        <ele>152.7</ele>
        <time>2024-12-12T08:51:32Z</time>
      </trkpt>
      <trkpt lat="48.71125" lon="1.70753">
        <ele>153.4</ele>
        <time>2024-12-12T08:51:39Z</time>
      </trkpt>
      <trkpt lat="48.71118" lon="1.70742">
        <ele>153.8</ele>
        <time>2024-12-12T08:51:45Z</time>
      </trkpt>
      <trkpt lat="48.71111" lon="1.70732">
        <ele>154</ele>
        <time>2024-12-12T08:51:51Z</time>
      </trkpt>
      <trkpt lat="48.71104" lon="1.70722">
        <ele>154.2</ele>
        <time>2024-12-12T08:51:57Z</time>
      </trkpt>
      <trkpt lat="48.71097" lon="1.70711">
        <ele>154.1</ele>
        <time>2024-12-12T08:52:04Z</time>
      </trkpt>
      <trkpt lat="48.71091" lon="1.70701">
        <ele>154</ele>
        <time>2024-12-12T08:52:12Z</time>
      </trkpt>
      <trkpt lat="48.71084" lon="1.70691">
        <ele>154</ele>
        <time>2024-12-12T08:52:20Z</time>
      </trkpt>
      <trkpt lat="48.71077" lon="1.70682">
        <ele>154.7</ele>
        <time>2024-12-12T08:52:26Z</time>
      </trkpt>
      <trkpt lat="48.71069" lon="1.70671">
        <ele>155.6</ele>
        <time>2024-12-12T08:52:33Z</time>
      </trkpt>
      <trkpt lat="48.71061" lon="1.70664">
        <ele>156.4</ele>
        <time>2024-12-12T08:52:41Z</time>
      </trkpt>
      <trkpt lat="48.71053" lon="1.70653">
        <ele>157.2</ele>
        <time>2024-12-12T08:52:49Z</time>
      </trkpt>
      <trkpt lat="48.71047" lon="1.70642">
        <ele>157.9</ele>
        <time>2024-12-12T08:52:56Z</time>
      </trkpt>
      <trkpt lat="48.71041" lon="1.70632">
        <ele>158.4</ele>
        <time>2024-12-12T08:53:02Z</time>
      </trkpt>
      <trkpt lat="48.71032" lon="1.70625">
        <ele>158.7</ele>
        <time>2024-12-12T08:53:11Z</time>
      </trkpt>
      <trkpt lat="48.71025" lon="1.70613">
        <ele>158.4</ele>
        <time>2024-12-12T08:53:20Z</time>
      </trkpt>
      <trkpt lat="48.71017" lon="1.70604">
        <ele>158.1</ele>
        <time>2024-12-12T08:53:31Z</time>
      </trkpt>
      <trkpt lat="48.71011" lon="1.70593">
        <ele>157.5</ele>
        <time>2024-12-12T08:53:36Z</time>
      </trkpt>
      <trkpt lat="48.71004" lon="1.70581">
        <ele>156.6</ele>
        <time>2024-12-12T08:53:43Z</time>
      </trkpt>
      <trkpt lat="48.70998" lon="1.70572">
        <ele>155.8</ele>
        <time>2024-12-12T08:53:49Z</time>
      </trkpt>
      <trkpt lat="48.7099" lon="1.70564">
        <ele>154.7</ele>
        <time>2024-12-12T08:53:56Z</time>
      </trkpt>
      <trkpt lat="48.70982" lon="1.70554">
        <ele>153.1</ele>
        <time>2024-12-12T08:54:04Z</time>
      </trkpt>
      <trkpt lat="48.70976" lon="1.70543">
        <ele>150.5</ele>
        <time>2024-12-12T08:54:13Z</time>
      </trkpt>
      <trkpt lat="48.70968" lon="1.70536">
        <ele>148.6</ele>
        <time>2024-12-12T08:54:23Z</time>
      </trkpt>
      <trkpt lat="48.7096" lon="1.70527">
        <ele>146.9</ele>
        <time>2024-12-12T08:54:30Z</time>
      </trkpt>
      <trkpt lat="48.70954" lon="1.70516">
        <ele>146.3</ele>
        <time>2024-12-12T08:54:36Z</time>
      </trkpt>
      <trkpt lat="48.70949" lon="1.70502">
        <ele>145.8</ele>
        <time>2024-12-12T08:54:43Z</time>
      </trkpt>
      <trkpt lat="48.70945" lon="1.70488">
        <ele>146</ele>
        <time>2024-12-12T08:54:51Z</time>
      </trkpt>
      <trkpt lat="48.70942" lon="1.70475">
        <ele>146.2</ele>
        <time>2024-12-12T08:54:57Z</time>
      </trkpt>
      <trkpt lat="48.70938" lon="1.70461">
        <ele>148.5</ele>
        <time>2024-12-12T08:55:02Z</time>
      </trkpt>
      <trkpt lat="48.70936" lon="1.70447">
        <ele>150.9</ele>
        <time>2024-12-12T08:55:15Z</time>
      </trkpt>
      <trkpt lat="48.70934" lon="1.70433">
        <ele>154.1</ele>
        <time>2024-12-12T08:55:22Z</time>
      </trkpt>
      <trkpt lat="48.70928" lon="1.70422">
        <ele>157</ele>
        <time>2024-12-12T08:55:29Z</time>
      </trkpt>
      <trkpt lat="48.70924" lon="1.70409">
        <ele>159.8</ele>
        <time>2024-12-12T08:55:37Z</time>
      </trkpt>
      <trkpt lat="48.70919" lon="1.70397">
        <ele>162.5</ele>
        <time>2024-12-12T08:55:45Z</time>
      </trkpt>
      <trkpt lat="48.70913" lon="1.70385">
        <ele>164.2</ele>
        <time>2024-12-12T08:55:54Z</time>
      </trkpt>
      <trkpt lat="48.70907" lon="1.70374">
        <ele>165.7</ele>
        <time>2024-12-12T08:56:03Z</time>
      </trkpt>
      <trkpt lat="48.709" lon="1.70365">
        <ele>167.3</ele>
        <time>2024-12-12T08:56:10Z</time>
      </trkpt>
      <trkpt lat="48.70895" lon="1.70353">
        <ele>169.6</ele>
        <time>2024-12-12T08:56:22Z</time>
      </trkpt>
      <trkpt lat="48.70887" lon="1.70345">
        <ele>171.3</ele>
        <time>2024-12-12T08:56:38Z</time>
      </trkpt>
      <trkpt lat="48.70883" lon="1.70333">
        <ele>173.8</ele>
        <time>2024-12-12T08:57:06Z</time>
      </trkpt>
      <trkpt lat="48.70875" lon="1.70324">
        <ele>174.8</ele>
        <time>2024-12-12T08:57:15Z</time>
      </trkpt>
      <trkpt lat="48.70866" lon="1.70317">
        <ele>175.9</ele>
        <time>2024-12-12T08:57:23Z</time>
      </trkpt>
      <trkpt lat="48.70858" lon="1.70309">
        <ele>177.3</ele>
        <time>2024-12-12T08:57:32Z</time>
      </trkpt>
      <trkpt lat="48.70848" lon="1.70303">
        <ele>178.1</ele>
        <time>2024-12-12T08:57:42Z</time>
      </trkpt>
      <trkpt lat="48.70839" lon="1.70306">
        <ele>177.9</ele>
        <time>2024-12-12T09:02:04Z</time>
      </trkpt>
      <trkpt lat="48.7083" lon="1.70302">
        <ele>178.2</ele>
        <time>2024-12-12T09:02:12Z</time>
      </trkpt>
      <trkpt lat="48.70821" lon="1.70299">
        <ele>178.7</ele>
        <time>2024-12-12T09:02:20Z</time>
      </trkpt>
      <trkpt lat="48.70811" lon="1.70297">
        <ele>179.1</ele>
        <time>2024-12-12T09:02:27Z</time>
      </trkpt>
      <trkpt lat="48.70802" lon="1.70293">
        <ele>179.4</ele>
        <time>2024-12-12T09:02:34Z</time>
      </trkpt>
      <trkpt lat="48.70794" lon="1.70286">
        <ele>179.7</ele>
        <time>2024-12-12T09:02:42Z</time>
      </trkpt>
      <trkpt lat="48.70786" lon="1.70277">
        <ele>180</ele>
        <time>2024-12-12T09:02:49Z</time>
      </trkpt>
      <trkpt lat="48.70779" lon="1.70269">
        <ele>180</ele>
        <time>2024-12-12T09:02:55Z</time>
      </trkpt>
      <trkpt lat="48.70771" lon="1.70261">
        <ele>180</ele>
        <time>2024-12-12T09:03:02Z</time>
      </trkpt>
      <trkpt lat="48.70763" lon="1.70253">
        <ele>180</ele>
        <time>2024-12-12T09:03:09Z</time>
      </trkpt>
      <trkpt lat="48.70756" lon="1.70243">
        <ele>180</ele>
        <time>2024-12-12T09:03:16Z</time>
      </trkpt>
      <trkpt lat="48.70749" lon="1.70233">
        <ele>180</ele>
        <time>2024-12-12T09:03:23Z</time>
      </trkpt>
      <trkpt lat="48.70741" lon="1.70223">
        <ele>180</ele>
        <time>2024-12-12T09:03:30Z</time>
      </trkpt>
      <trkpt lat="48.70733" lon="1.70215">
        <ele>180</ele>
        <time>2024-12-12T09:03:36Z</time>
      </trkpt>
      <trkpt lat="48.70725" lon="1.70205">
        <ele>180</ele>
        <time>2024-12-12T09:03:43Z</time>
      </trkpt>
      <trkpt lat="48.70719" lon="1.70195">
        <ele>180</ele>
        <time>2024-12-12T09:03:51Z</time>
      </trkpt>
      <trkpt lat="48.70712" lon="1.70186">
        <ele>180</ele>
        <time>2024-12-12T09:03:58Z</time>
      </trkpt>
      <trkpt lat="48.70706" lon="1.70176">
        <ele>180</ele>
        <time>2024-12-12T09:04:05Z</time>
      </trkpt>
      <trkpt lat="48.70698" lon="1.70166">
        <ele>180</ele>
        <time>2024-12-12T09:04:12Z</time>
      </trkpt>
      <trkpt lat="48.70691" lon="1.70157">
        <ele>180</ele>
        <time>2024-12-12T09:04:19Z</time>
      </trkpt>
      <trkpt lat="48.70684" lon="1.70148">
        <ele>180</ele>
        <time>2024-12-12T09:04:27Z</time>
      </trkpt>
      <trkpt lat="48.70676" lon="1.7014">
        <ele>180</ele>
        <time>2024-12-12T09:04:34Z</time>
      </trkpt>
      <trkpt lat="48.7067" lon="1.70129">
        <ele>180</ele>
        <time>2024-12-12T09:04:41Z</time>
      </trkpt>
      <trkpt lat="48.70663" lon="1.7012">
        <ele>180</ele>
        <time>2024-12-12T09:04:48Z</time>
      </trkpt>
      <trkpt lat="48.70656" lon="1.7011">
        <ele>180</ele>
        <time>2024-12-12T09:04:54Z</time>
      </trkpt>
      <trkpt lat="48.70649" lon="1.701">
        <ele>180</ele>
        <time>2024-12-12T09:05:01Z</time>
      </trkpt>
      <trkpt lat="48.7064" lon="1.70092">
        <ele>180</ele>
        <time>2024-12-12T09:05:08Z</time>
      </trkpt>
      <trkpt lat="48.70632" lon="1.70084">
        <ele>180</ele>
        <time>2024-12-12T09:05:16Z</time>
      </trkpt>
      <trkpt lat="48.70624" lon="1.70075">
        <ele>180</ele>
        <time>2024-12-12T09:05:23Z</time>
      </trkpt>
      <trkpt lat="48.70615" lon="1.70067">
        <ele>180</ele>
        <time>2024-12-12T09:05:31Z</time>
      </trkpt>
      <trkpt lat="48.70609" lon="1.70056">
        <ele>180</ele>
        <time>2024-12-12T09:05:38Z</time>
      </trkpt>
      <trkpt lat="48.70603" lon="1.70045">
        <ele>180</ele>
        <time>2024-12-12T09:05:44Z</time>
      </trkpt>
      <trkpt lat="48.70597" lon="1.70034">
        <ele>180</ele>
        <time>2024-12-12T09:05:52Z</time>
      </trkpt>
      <trkpt lat="48.70588" lon="1.70027">
        <ele>180</ele>
        <time>2024-12-12T09:06:03Z</time>
      </trkpt>
      <trkpt lat="48.70582" lon="1.70015">
        <ele>179.5</ele>
        <time>2024-12-12T09:06:12Z</time>
      </trkpt>
      <trkpt lat="48.70574" lon="1.70006">
        <ele>179.1</ele>
        <time>2024-12-12T09:06:23Z</time>
      </trkpt>
      <trkpt lat="48.70567" lon="1.69996">
        <ele>179</ele>
        <time>2024-12-12T09:06:29Z</time>
      </trkpt>
      <trkpt lat="48.7056" lon="1.69986">
        <ele>179</ele>
        <time>2024-12-12T09:06:37Z</time>
      </trkpt>
      <trkpt lat="48.70552" lon="1.69978">
        <ele>179</ele>
        <time>2024-12-12T09:06:46Z</time>
      </trkpt>
      <trkpt lat="48.70543" lon="1.69972">
        <ele>179</ele>
        <time>2024-12-12T09:06:53Z</time>
      </trkpt>
      <trkpt lat="48.70536" lon="1.69962">
        <ele>179</ele>
        <time>2024-12-12T09:07:02Z</time>
      </trkpt>
      <trkpt lat="48.7053" lon="1.69952">
        <ele>179</ele>
        <time>2024-12-12T09:07:10Z</time>
      </trkpt>
      <trkpt lat="48.70523" lon="1.69942">
        <ele>179</ele>
        <time>2024-12-12T09:07:18Z</time>
      </trkpt>
      <trkpt lat="48.70515" lon="1.69935">
        <ele>179</ele>
        <time>2024-12-12T09:07:25Z</time>
      </trkpt>
      <trkpt lat="48.70508" lon="1.69924">
        <ele>179</ele>
        <time>2024-12-12T09:07:32Z</time>
      </trkpt>
      <trkpt lat="48.70501" lon="1.69913">
        <ele>179</ele>
        <time>2024-12-12T09:07:39Z</time>
      </trkpt>
      <trkpt lat="48.70494" lon="1.69903">
        <ele>178.8</ele>
        <time>2024-12-12T09:07:46Z</time>
      </trkpt>
      <trkpt lat="48.70486" lon="1.69894">
        <ele>178.5</ele>
        <time>2024-12-12T09:07:54Z</time>
      </trkpt>
      <trkpt lat="48.70478" lon="1.69887">
        <ele>178.2</ele>
        <time>2024-12-12T09:08:02Z</time>
      </trkpt>
      <trkpt lat="48.7047" lon="1.69879">
        <ele>178</ele>
        <time>2024-12-12T09:08:08Z</time>
      </trkpt>
      <trkpt lat="48.70462" lon="1.69871">
        <ele>178</ele>
        <time>2024-12-12T09:08:14Z</time>
      </trkpt>
      <trkpt lat="48.70454" lon="1.6986">
        <ele>178</ele>
        <time>2024-12-12T09:08:21Z</time>
      </trkpt>
      <trkpt lat="48.70447" lon="1.69849">
        <ele>178</ele>
        <time>2024-12-12T09:08:27Z</time>
      </trkpt>
      <trkpt lat="48.70439" lon="1.6984">
        <ele>178</ele>
        <time>2024-12-12T09:08:35Z</time>
      </trkpt>
      <trkpt lat="48.70432" lon="1.69832">
        <ele>178</ele>
        <time>2024-12-12T09:08:41Z</time>
      </trkpt>
      <trkpt lat="48.70424" lon="1.69823">
        <ele>178</ele>
        <time>2024-12-12T09:08:48Z</time>
      </trkpt>
      <trkpt lat="48.70416" lon="1.69814">
        <ele>178</ele>
        <time>2024-12-12T09:08:54Z</time>
      </trkpt>
      <trkpt lat="48.70409" lon="1.69806">
        <ele>178</ele>
        <time>2024-12-12T09:09:01Z</time>
      </trkpt>
      <trkpt lat="48.70402" lon="1.69793">
        <ele>178</ele>
        <time>2024-12-12T09:09:07Z</time>
      </trkpt>
      <trkpt lat="48.70395" lon="1.69783">
        <ele>178</ele>
        <time>2024-12-12T09:09:13Z</time>
      </trkpt>
      <trkpt lat="48.70389" lon="1.69773">
        <ele>178</ele>
        <time>2024-12-12T09:09:20Z</time>
      </trkpt>
      <trkpt lat="48.70383" lon="1.69762">
        <ele>178</ele>
        <time>2024-12-12T09:09:28Z</time>
      </trkpt>
      <trkpt lat="48.70375" lon="1.69753">
        <ele>178</ele>
        <time>2024-12-12T09:09:35Z</time>
      </trkpt>
      <trkpt lat="48.70368" lon="1.69743">
        <ele>178</ele>
        <time>2024-12-12T09:09:42Z</time>
      </trkpt>
      <trkpt lat="48.7036" lon="1.69737">
        <ele>178</ele>
        <time>2024-12-12T09:09:47Z</time>
      </trkpt>
      <trkpt lat="48.70352" lon="1.69729">
        <ele>178</ele>
        <time>2024-12-12T09:09:53Z</time>
      </trkpt>
      <trkpt lat="48.70344" lon="1.6972">
        <ele>178</ele>
        <time>2024-12-12T09:09:59Z</time>
      </trkpt>
      <trkpt lat="48.70336" lon="1.69711">
        <ele>178</ele>
        <time>2024-12-12T09:10:06Z</time>
      </trkpt>
      <trkpt lat="48.7033" lon="1.69701">
        <ele>178</ele>
        <time>2024-12-12T09:10:13Z</time>
      </trkpt>
      <trkpt lat="48.70324" lon="1.69688">
        <ele>178.2</ele>
        <time>2024-12-12T09:10:20Z</time>
      </trkpt>
      <trkpt lat="48.70317" lon="1.69679">
        <ele>178.2</ele>
        <time>2024-12-12T09:10:26Z</time>
      </trkpt>
      <trkpt lat="48.7031" lon="1.6967">
        <ele>178.1</ele>
        <time>2024-12-12T09:10:33Z</time>
      </trkpt>
      <trkpt lat="48.70302" lon="1.69661">
        <ele>178</ele>
        <time>2024-12-12T09:10:41Z</time>
      </trkpt>
      <trkpt lat="48.70295" lon="1.69652">
        <ele>178</ele>
        <time>2024-12-12T09:10:49Z</time>
      </trkpt>
      <trkpt lat="48.70288" lon="1.69642">
        <ele>178</ele>
        <time>2024-12-12T09:10:57Z</time>
      </trkpt>
      <trkpt lat="48.70281" lon="1.69632">
        <ele>178</ele>
        <time>2024-12-12T09:11:06Z</time>
      </trkpt>
      <trkpt lat="48.70272" lon="1.69624">
        <ele>178</ele>
        <time>2024-12-12T09:11:13Z</time>
      </trkpt>
      <trkpt lat="48.70264" lon="1.69616">
        <ele>178</ele>
        <time>2024-12-12T09:11:20Z</time>
      </trkpt>
      <trkpt lat="48.70258" lon="1.69607">
        <ele>178</ele>
        <time>2024-12-12T09:11:27Z</time>
      </trkpt>
      <trkpt lat="48.7025" lon="1.69596">
        <ele>178</ele>
        <time>2024-12-12T09:11:36Z</time>
      </trkpt>
      <trkpt lat="48.70243" lon="1.69586">
        <ele>177.7</ele>
        <time>2024-12-12T09:11:44Z</time>
      </trkpt>
      <trkpt lat="48.70236" lon="1.69577">
        <ele>177.5</ele>
        <time>2024-12-12T09:11:52Z</time>
      </trkpt>
      <trkpt lat="48.70229" lon="1.69569">
        <ele>177.2</ele>
        <time>2024-12-12T09:11:59Z</time>
      </trkpt>
      <trkpt lat="48.70221" lon="1.69559">
        <ele>177</ele>
        <time>2024-12-12T09:12:06Z</time>
      </trkpt>
      <trkpt lat="48.70213" lon="1.6955">
        <ele>177</ele>
        <time>2024-12-12T09:12:14Z</time>
      </trkpt>
      <trkpt lat="48.70206" lon="1.69541">
        <ele>177</ele>
        <time>2024-12-12T09:12:31Z</time>
      </trkpt>
      <trkpt lat="48.70199" lon="1.69533">
        <ele>177</ele>
        <time>2024-12-12T09:12:39Z</time>
      </trkpt>
      <trkpt lat="48.70191" lon="1.69523">
        <ele>176.9</ele>
        <time>2024-12-12T09:12:46Z</time>
      </trkpt>
      <trkpt lat="48.70183" lon="1.69516">
        <ele>176.8</ele>
        <time>2024-12-12T09:12:53Z</time>
      </trkpt>
      <trkpt lat="48.70177" lon="1.69505">
        <ele>176.9</ele>
        <time>2024-12-12T09:13:02Z</time>
      </trkpt>
      <trkpt lat="48.70171" lon="1.69495">
        <ele>177</ele>
        <time>2024-12-12T09:13:10Z</time>
      </trkpt>
      <trkpt lat="48.70162" lon="1.69486">
        <ele>176.8</ele>
        <time>2024-12-12T09:13:18Z</time>
      </trkpt>
      <trkpt lat="48.70155" lon="1.69477">
        <ele>176.6</ele>
        <time>2024-12-12T09:13:25Z</time>
      </trkpt>
      <trkpt lat="48.70148" lon="1.69468">
        <ele>176.3</ele>
        <time>2024-12-12T09:13:32Z</time>
      </trkpt>
      <trkpt lat="48.70141" lon="1.69457">
        <ele>176.1</ele>
        <time>2024-12-12T09:13:40Z</time>
      </trkpt>
      <trkpt lat="48.70134" lon="1.69448">
        <ele>175.7</ele>
        <time>2024-12-12T09:13:47Z</time>
      </trkpt>
      <trkpt lat="48.70128" lon="1.69437">
        <ele>175.3</ele>
        <time>2024-12-12T09:13:54Z</time>
      </trkpt>
      <trkpt lat="48.70121" lon="1.69428">
        <ele>175.1</ele>
        <time>2024-12-12T09:14:00Z</time>
      </trkpt>
      <trkpt lat="48.70112" lon="1.69421">
        <ele>174.9</ele>
        <time>2024-12-12T09:14:06Z</time>
      </trkpt>
      <trkpt lat="48.70104" lon="1.69413">
        <ele>174.2</ele>
        <time>2024-12-12T09:14:12Z</time>
      </trkpt>
      <trkpt lat="48.70097" lon="1.69405">
        <ele>173.4</ele>
        <time>2024-12-12T09:14:20Z</time>
      </trkpt>
      <trkpt lat="48.70089" lon="1.69395">
        <ele>172.6</ele>
        <time>2024-12-12T09:14:27Z</time>
      </trkpt>
      <trkpt lat="48.70081" lon="1.69386">
        <ele>171.7</ele>
        <time>2024-12-12T09:14:33Z</time>
      </trkpt>
      <trkpt lat="48.70073" lon="1.69376">
        <ele>170.7</ele>
        <time>2024-12-12T09:14:40Z</time>
      </trkpt>
      <trkpt lat="48.70066" lon="1.69367">
        <ele>170</ele>
        <time>2024-12-12T09:14:47Z</time>
      </trkpt>
      <trkpt lat="48.70058" lon="1.69358">
        <ele>169.2</ele>
        <time>2024-12-12T09:14:55Z</time>
      </trkpt>
      <trkpt lat="48.70052" lon="1.69348">
        <ele>168.6</ele>
        <time>2024-12-12T09:15:01Z</time>
      </trkpt>
      <trkpt lat="48.70045" lon="1.69338">
        <ele>168.1</ele>
        <time>2024-12-12T09:15:08Z</time>
      </trkpt>
      <trkpt lat="48.70037" lon="1.69328">
        <ele>167.6</ele>
        <time>2024-12-12T09:15:16Z</time>
      </trkpt>
      <trkpt lat="48.70029" lon="1.69318">
        <ele>167.1</ele>
        <time>2024-12-12T09:15:23Z</time>
      </trkpt>
      <trkpt lat="48.70022" lon="1.6931">
        <ele>166.8</ele>
        <time>2024-12-12T09:15:29Z</time>
      </trkpt>
      <trkpt lat="48.70015" lon="1.693">
        <ele>166.5</ele>
        <time>2024-12-12T09:15:36Z</time>
      </trkpt>
      <trkpt lat="48.70007" lon="1.69293">
        <ele>165.9</ele>
        <time>2024-12-12T09:15:44Z</time>
      </trkpt>
      <trkpt lat="48.69999" lon="1.69285">
        <ele>165.2</ele>
        <time>2024-12-12T09:15:50Z</time>
      </trkpt>
      <trkpt lat="48.69993" lon="1.69273">
        <ele>164.7</ele>
        <time>2024-12-12T09:15:57Z</time>
      </trkpt>
      <trkpt lat="48.69987" lon="1.6926">
        <ele>164.5</ele>
        <time>2024-12-12T09:16:05Z</time>
      </trkpt>
      <trkpt lat="48.69979" lon="1.69252">
        <ele>164.2</ele>
        <time>2024-12-12T09:16:11Z</time>
      </trkpt>
      <trkpt lat="48.69971" lon="1.69244">
        <ele>164</ele>
        <time>2024-12-12T09:16:18Z</time>
      </trkpt>
      <trkpt lat="48.69964" lon="1.69235">
        <ele>163.5</ele>
        <time>2024-12-12T09:16:25Z</time>
      </trkpt>
      <trkpt lat="48.69956" lon="1.69226">
        <ele>162.9</ele>
        <time>2024-12-12T09:16:33Z</time>
      </trkpt>
      <trkpt lat="48.69949" lon="1.69215">
        <ele>162.3</ele>
        <time>2024-12-12T09:16:40Z</time>
      </trkpt>
      <trkpt lat="48.69941" lon="1.69206">
        <ele>161.8</ele>
        <time>2024-12-12T09:16:48Z</time>
      </trkpt>
      <trkpt lat="48.69934" lon="1.69196">
        <ele>161.2</ele>
        <time>2024-12-12T09:16:56Z</time>
      </trkpt>
      <trkpt lat="48.69926" lon="1.6919">
        <ele>160.5</ele>
        <time>2024-12-12T09:17:03Z</time>
      </trkpt>
      <trkpt lat="48.69919" lon="1.69181">
        <ele>159.7</ele>
        <time>2024-12-12T09:17:11Z</time>
      </trkpt>
      <trkpt lat="48.69911" lon="1.69172">
        <ele>158.6</ele>
        <time>2024-12-12T09:17:19Z</time>
      </trkpt>
      <trkpt lat="48.69903" lon="1.69162">
        <ele>157.4</ele>
        <time>2024-12-12T09:17:28Z</time>
      </trkpt>
      <trkpt lat="48.69896" lon="1.69151">
        <ele>156.3</ele>
        <time>2024-12-12T09:17:36Z</time>
      </trkpt>
      <trkpt lat="48.6989" lon="1.69141">
        <ele>155.2</ele>
        <time>2024-12-12T09:17:43Z</time>
      </trkpt>
      <trkpt lat="48.69881" lon="1.69134">
        <ele>154.3</ele>
        <time>2024-12-12T09:17:50Z</time>
      </trkpt>
      <trkpt lat="48.69874" lon="1.69125">
        <ele>153.4</ele>
        <time>2024-12-12T09:17:56Z</time>
      </trkpt>
      <trkpt lat="48.69866" lon="1.69116">
        <ele>152.6</ele>
        <time>2024-12-12T09:18:04Z</time>
      </trkpt>
      <trkpt lat="48.69858" lon="1.69106">
        <ele>151.9</ele>
        <time>2024-12-12T09:18:10Z</time>
      </trkpt>
      <trkpt lat="48.6985" lon="1.69097">
        <ele>151.4</ele>
        <time>2024-12-12T09:18:16Z</time>
      </trkpt>
      <trkpt lat="48.69843" lon="1.69088">
        <ele>150.8</ele>
        <time>2024-12-12T09:18:23Z</time>
      </trkpt>
      <trkpt lat="48.69835" lon="1.69079">
        <ele>150.1</ele>
        <time>2024-12-12T09:18:29Z</time>
      </trkpt>
      <trkpt lat="48.69829" lon="1.69067">
        <ele>149.9</ele>
        <time>2024-12-12T09:18:36Z</time>
      </trkpt>
      <trkpt lat="48.69822" lon="1.69056">
        <ele>149.6</ele>
        <time>2024-12-12T09:18:43Z</time>
      </trkpt>
      <trkpt lat="48.69815" lon="1.69045">
        <ele>149.3</ele>
        <time>2024-12-12T09:18:51Z</time>
      </trkpt>
      <trkpt lat="48.69806" lon="1.69039">
        <ele>149</ele>
        <time>2024-12-12T09:18:57Z</time>
      </trkpt>
      <trkpt lat="48.69798" lon="1.6903">
        <ele>148.7</ele>
        <time>2024-12-12T09:19:05Z</time>
      </trkpt>
      <trkpt lat="48.6979" lon="1.69019">
        <ele>148.4</ele>
        <time>2024-12-12T09:19:11Z</time>
      </trkpt>
      <trkpt lat="48.69782" lon="1.69009">
        <ele>148.2</ele>
        <time>2024-12-12T09:19:17Z</time>
      </trkpt>
      <trkpt lat="48.69774" lon="1.69002">
        <ele>148</ele>
        <time>2024-12-12T09:19:23Z</time>
      </trkpt>
      <trkpt lat="48.69768" lon="1.68992">
        <ele>148</ele>
        <time>2024-12-12T09:19:30Z</time>
      </trkpt>
      <trkpt lat="48.6976" lon="1.68982">
        <ele>148</ele>
        <time>2024-12-12T09:19:38Z</time>
      </trkpt>
      <trkpt lat="48.69754" lon="1.68971">
        <ele>148</ele>
        <time>2024-12-12T09:19:48Z</time>
      </trkpt>
      <trkpt lat="48.69754" lon="1.68957">
        <ele>148</ele>
        <time>2024-12-12T09:19:57Z</time>
      </trkpt>
      <trkpt lat="48.69756" lon="1.68943">
        <ele>148</ele>
        <time>2024-12-12T09:20:09Z</time>
      </trkpt>
      <trkpt lat="48.69755" lon="1.68929">
        <ele>148</ele>
        <time>2024-12-12T09:20:16Z</time>
      </trkpt>
      <trkpt lat="48.69753" lon="1.68915">
        <ele>148</ele>
        <time>2024-12-12T09:20:24Z</time>
      </trkpt>
      <trkpt lat="48.69752" lon="1.68901">
        <ele>148</ele>
        <time>2024-12-12T09:20:31Z</time>
      </trkpt>
      <trkpt lat="48.69752" lon="1.68887">
        <ele>148</ele>
        <time>2024-12-12T09:20:39Z</time>
      </trkpt>
      <trkpt lat="48.69752" lon="1.68872">
        <ele>148</ele>
        <time>2024-12-12T09:20:48Z</time>
      </trkpt>
      <trkpt lat="48.69749" lon="1.68858">
        <ele>148</ele>
        <time>2024-12-12T09:20:57Z</time>
      </trkpt>
      <trkpt lat="48.69749" lon="1.68844">
        <ele>148</ele>
        <time>2024-12-12T09:21:04Z</time>
      </trkpt>
      <trkpt lat="48.69748" lon="1.6883">
        <ele>147.9</ele>
        <time>2024-12-12T09:21:10Z</time>
      </trkpt>
      <trkpt lat="48.69748" lon="1.68816">
        <ele>147.9</ele>
        <time>2024-12-12T09:21:21Z</time>
      </trkpt>
      <trkpt lat="48.6975" lon="1.68802">
        <ele>148</ele>
        <time>2024-12-12T09:21:29Z</time>
      </trkpt>
      <trkpt lat="48.69749" lon="1.68787">
        <ele>147.9</ele>
        <time>2024-12-12T09:21:35Z</time>
      </trkpt>
      <trkpt lat="48.69748" lon="1.68771">
        <ele>147.9</ele>
        <time>2024-12-12T09:21:42Z</time>
      </trkpt>
      <trkpt lat="48.69745" lon="1.68757">
        <ele>148</ele>
        <time>2024-12-12T09:21:47Z</time>
      </trkpt>
      <trkpt lat="48.69744" lon="1.68743">
        <ele>148</ele>
        <time>2024-12-12T09:21:52Z</time>
      </trkpt>
      <trkpt lat="48.69744" lon="1.68728">
        <ele>148</ele>
        <time>2024-12-12T09:21:57Z</time>
      </trkpt>
      <trkpt lat="48.69743" lon="1.68712">
        <ele>148.3</ele>
        <time>2024-12-12T09:22:03Z</time>
      </trkpt>
      <trkpt lat="48.69744" lon="1.68696">
        <ele>148.7</ele>
        <time>2024-12-12T09:22:10Z</time>
      </trkpt>
      <trkpt lat="48.69743" lon="1.68681">
        <ele>148.7</ele>
        <time>2024-12-12T09:22:18Z</time>
      </trkpt>
      <trkpt lat="48.69745" lon="1.68666">
        <ele>148.8</ele>
        <time>2024-12-12T09:22:27Z</time>
      </trkpt>
      <trkpt lat="48.69746" lon="1.68651">
        <ele>148.8</ele>
        <time>2024-12-12T09:22:35Z</time>
      </trkpt>
      <trkpt lat="48.69746" lon="1.68637">
        <ele>148.9</ele>
        <time>2024-12-12T09:22:42Z</time>
      </trkpt>
      <trkpt lat="48.69748" lon="1.68623">
        <ele>148.9</ele>
        <time>2024-12-12T09:22:49Z</time>
      </trkpt>
      <trkpt lat="48.69749" lon="1.68608">
        <ele>148.8</ele>
        <time>2024-12-12T09:22:57Z</time>
      </trkpt>
      <trkpt lat="48.69749" lon="1.68593">
        <ele>148.3</ele>
        <time>2024-12-12T09:23:03Z</time>
      </trkpt>
      <trkpt lat="48.6975" lon="1.68579">
        <ele>148</ele>
        <time>2024-12-12T09:23:10Z</time>
      </trkpt>
      <trkpt lat="48.69747" lon="1.68564">
        <ele>147.9</ele>
        <time>2024-12-12T09:23:16Z</time>
      </trkpt>
      <trkpt lat="48.69744" lon="1.6855">
        <ele>147.6</ele>
        <time>2024-12-12T09:23:23Z</time>
      </trkpt>
      <trkpt lat="48.69746" lon="1.68535">
        <ele>147.1</ele>
        <time>2024-12-12T09:23:57Z</time>
      </trkpt>
      <trkpt lat="48.69746" lon="1.68521">
        <ele>146.7</ele>
        <time>2024-12-12T09:24:06Z</time>
      </trkpt>
      <trkpt lat="48.69747" lon="1.68506">
        <ele>146.2</ele>
        <time>2024-12-12T09:24:13Z</time>
      </trkpt>
      <trkpt lat="48.69747" lon="1.6849">
        <ele>145.7</ele>
        <time>2024-12-12T09:24:19Z</time>
      </trkpt>
      <trkpt lat="48.69747" lon="1.68476">
        <ele>145.1</ele>
        <time>2024-12-12T09:24:25Z</time>
      </trkpt>
      <trkpt lat="48.69748" lon="1.68461">
        <ele>144.6</ele>
        <time>2024-12-12T09:24:33Z</time>
      </trkpt>
      <trkpt lat="48.6975" lon="1.68446">
        <ele>144.1</ele>
        <time>2024-12-12T09:24:41Z</time>
      </trkpt>
      <trkpt lat="48.69753" lon="1.68433">
        <ele>144.1</ele>
        <time>2024-12-12T09:24:50Z</time>
      </trkpt>
      <trkpt lat="48.69757" lon="1.68421">
        <ele>144.2</ele>
        <time>2024-12-12T09:25:03Z</time>
      </trkpt>
      <trkpt lat="48.69755" lon="1.68406">
        <ele>144.2</ele>
        <time>2024-12-12T09:25:23Z</time>
      </trkpt>
      <trkpt lat="48.69762" lon="1.68397">
        <ele>144.4</ele>
        <time>2024-12-12T09:25:34Z</time>
      </trkpt>
      <trkpt lat="48.69761" lon="1.68383">
        <ele>144.4</ele>
        <time>2024-12-12T09:25:44Z</time>
      </trkpt>
      <trkpt lat="48.6976" lon="1.68368">
        <ele>144.4</ele>
        <time>2024-12-12T09:25:52Z</time>
      </trkpt>
      <trkpt lat="48.69758" lon="1.68354">
        <ele>144.2</ele>
        <time>2024-12-12T09:25:59Z</time>
      </trkpt>
      <trkpt lat="48.69753" lon="1.68342">
        <ele>143.6</ele>
        <time>2024-12-12T09:26:05Z</time>
      </trkpt>
      <trkpt lat="48.69753" lon="1.68327">
        <ele>143.3</ele>
        <time>2024-12-12T09:26:11Z</time>
      </trkpt>
      <trkpt lat="48.69753" lon="1.68313">
        <ele>143.2</ele>
        <time>2024-12-12T09:26:19Z</time>
      </trkpt>
      <trkpt lat="48.69753" lon="1.68298">
        <ele>143.2</ele>
        <time>2024-12-12T09:26:25Z</time>
      </trkpt>
      <trkpt lat="48.69754" lon="1.68284">
        <ele>143.2</ele>
        <time>2024-12-12T09:26:32Z</time>
      </trkpt>
      <trkpt lat="48.69754" lon="1.6827">
        <ele>143.1</ele>
        <time>2024-12-12T09:26:39Z</time>
      </trkpt>
      <trkpt lat="48.69754" lon="1.68254">
        <ele>143.1</ele>
        <time>2024-12-12T09:26:46Z</time>
      </trkpt>
      <trkpt lat="48.69753" lon="1.68241">
        <ele>143.1</ele>
        <time>2024-12-12T09:26:52Z</time>
      </trkpt>
      <trkpt lat="48.69753" lon="1.68226">
        <ele>143</ele>
        <time>2024-12-12T09:26:59Z</time>
      </trkpt>
      <trkpt lat="48.69755" lon="1.6821">
        <ele>143</ele>
        <time>2024-12-12T09:27:06Z</time>
      </trkpt>
      <trkpt lat="48.69756" lon="1.68195">
        <ele>143</ele>
        <time>2024-12-12T09:27:13Z</time>
      </trkpt>
      <trkpt lat="48.69756" lon="1.68181">
        <ele>143</ele>
        <time>2024-12-12T09:27:20Z</time>
      </trkpt>
      <trkpt lat="48.69756" lon="1.68168">
        <ele>143</ele>
        <time>2024-12-12T09:27:28Z</time>
      </trkpt>
      <trkpt lat="48.69759" lon="1.68153">
        <ele>143</ele>
        <time>2024-12-12T09:27:34Z</time>
      </trkpt>
      <trkpt lat="48.69762" lon="1.68139">
        <ele>143</ele>
        <time>2024-12-12T09:27:40Z</time>
      </trkpt>
      <trkpt lat="48.69759" lon="1.68126">
        <ele>143</ele>
        <time>2024-12-12T09:27:47Z</time>
      </trkpt>
      <trkpt lat="48.69758" lon="1.68111">
        <ele>143</ele>
        <time>2024-12-12T09:27:56Z</time>
      </trkpt>
      <trkpt lat="48.6976" lon="1.68096">
        <ele>142.7</ele>
        <time>2024-12-12T09:28:03Z</time>
      </trkpt>
      <trkpt lat="48.6976" lon="1.68083">
        <ele>142.4</ele>
        <time>2024-12-12T09:28:09Z</time>
      </trkpt>
      <trkpt lat="48.6976" lon="1.68068">
        <ele>142.3</ele>
        <time>2024-12-12T09:28:16Z</time>
      </trkpt>
      <trkpt lat="48.69756" lon="1.68056">
        <ele>142.2</ele>
        <time>2024-12-12T09:28:22Z</time>
      </trkpt>
      <trkpt lat="48.69753" lon="1.68043">
        <ele>142.1</ele>
        <time>2024-12-12T09:28:30Z</time>
      </trkpt>
      <trkpt lat="48.6975" lon="1.68029">
        <ele>142</ele>
        <time>2024-12-12T09:28:38Z</time>
      </trkpt>
      <trkpt lat="48.69749" lon="1.68015">
        <ele>142</ele>
        <time>2024-12-12T09:28:47Z</time>
      </trkpt>
      <trkpt lat="48.69749" lon="1.68">
        <ele>142</ele>
        <time>2024-12-12T09:28:54Z</time>
      </trkpt>
      <trkpt lat="48.69747" lon="1.67984">
        <ele>142</ele>
        <time>2024-12-12T09:29:01Z</time>
      </trkpt>
      <trkpt lat="48.69744" lon="1.67971">
        <ele>142</ele>
        <time>2024-12-12T09:29:07Z</time>
      </trkpt>
      <trkpt lat="48.69743" lon="1.67957">
        <ele>142.4</ele>
        <time>2024-12-12T09:29:14Z</time>
      </trkpt>
      <trkpt lat="48.69744" lon="1.67942">
        <ele>142.8</ele>
        <time>2024-12-12T09:29:21Z</time>
      </trkpt>
      <trkpt lat="48.69742" lon="1.67928">
        <ele>142.7</ele>
        <time>2024-12-12T09:29:27Z</time>
      </trkpt>
      <trkpt lat="48.69742" lon="1.67914">
        <ele>142.7</ele>
        <time>2024-12-12T09:29:35Z</time>
      </trkpt>
      <trkpt lat="48.69741" lon="1.679">
        <ele>142.9</ele>
        <time>2024-12-12T09:29:41Z</time>
      </trkpt>
      <trkpt lat="48.6974" lon="1.67885">
        <ele>143.1</ele>
        <time>2024-12-12T09:29:50Z</time>
      </trkpt>
      <trkpt lat="48.69737" lon="1.67872">
        <ele>143.3</ele>
        <time>2024-12-12T09:30:02Z</time>
      </trkpt>
      <trkpt lat="48.6973" lon="1.67861">
        <ele>143.3</ele>
        <time>2024-12-12T09:30:10Z</time>
      </trkpt>
      <trkpt lat="48.69727" lon="1.67848">
        <ele>143.2</ele>
        <time>2024-12-12T09:30:17Z</time>
      </trkpt>
      <trkpt lat="48.69725" lon="1.67834">
        <ele>143.1</ele>
        <time>2024-12-12T09:30:24Z</time>
      </trkpt>
      <trkpt lat="48.69725" lon="1.6782">
        <ele>143.6</ele>
        <time>2024-12-12T09:30:33Z</time>
      </trkpt>
      <trkpt lat="48.69724" lon="1.67805">
        <ele>144</ele>
        <time>2024-12-12T09:30:41Z</time>
      </trkpt>
      <trkpt lat="48.69719" lon="1.67792">
        <ele>143.9</ele>
        <time>2024-12-12T09:30:47Z</time>
      </trkpt>
      <trkpt lat="48.69714" lon="1.67779">
        <ele>143.7</ele>
        <time>2024-12-12T09:30:55Z</time>
      </trkpt>
      <trkpt lat="48.69712" lon="1.67765">
        <ele>143.6</ele>
        <time>2024-12-12T09:31:01Z</time>
      </trkpt>
      <trkpt lat="48.69713" lon="1.6775">
        <ele>143.7</ele>
        <time>2024-12-12T09:31:10Z</time>
      </trkpt>
      <trkpt lat="48.69711" lon="1.67736">
        <ele>143.6</ele>
        <time>2024-12-12T09:31:18Z</time>
      </trkpt>
      <trkpt lat="48.69708" lon="1.67723">
        <ele>143.5</ele>
        <time>2024-12-12T09:31:24Z</time>
      </trkpt>
      <trkpt lat="48.69705" lon="1.67709">
        <ele>143.4</ele>
        <time>2024-12-12T09:31:31Z</time>
      </trkpt>
      <trkpt lat="48.69702" lon="1.67695">
        <ele>143.3</ele>
        <time>2024-12-12T09:31:38Z</time>
      </trkpt>
      <trkpt lat="48.69701" lon="1.67681">
        <ele>143.2</ele>
        <time>2024-12-12T09:31:44Z</time>
      </trkpt>
      <trkpt lat="48.69699" lon="1.67665">
        <ele>143.1</ele>
        <time>2024-12-12T09:31:51Z</time>
      </trkpt>
      <trkpt lat="48.69698" lon="1.6765">
        <ele>142.5</ele>
        <time>2024-12-12T09:31:58Z</time>
      </trkpt>
      <trkpt lat="48.69697" lon="1.67635">
        <ele>142.1</ele>
        <time>2024-12-12T09:32:06Z</time>
      </trkpt>
      <trkpt lat="48.69694" lon="1.67621">
        <ele>142</ele>
        <time>2024-12-12T09:32:13Z</time>
      </trkpt>
      <trkpt lat="48.69693" lon="1.67606">
        <ele>141.8</ele>
        <time>2024-12-12T09:32:21Z</time>
      </trkpt>
      <trkpt lat="48.69689" lon="1.67591">
        <ele>141.1</ele>
        <time>2024-12-12T09:32:27Z</time>
      </trkpt>
      <trkpt lat="48.69686" lon="1.67578">
        <ele>140.6</ele>
        <time>2024-12-12T09:32:34Z</time>
      </trkpt>
      <trkpt lat="48.6968" lon="1.67566">
        <ele>140.2</ele>
        <time>2024-12-12T09:32:40Z</time>
      </trkpt>
      <trkpt lat="48.69676" lon="1.67552">
        <ele>139.9</ele>
        <time>2024-12-12T09:32:48Z</time>
      </trkpt>
      <trkpt lat="48.69673" lon="1.67538">
        <ele>139.5</ele>
        <time>2024-12-12T09:32:56Z</time>
      </trkpt>
      <trkpt lat="48.6967" lon="1.67526">
        <ele>139.1</ele>
        <time>2024-12-12T09:33:03Z</time>
      </trkpt>
      <trkpt lat="48.69668" lon="1.67512">
        <ele>139</ele>
        <time>2024-12-12T09:33:10Z</time>
      </trkpt>
      <trkpt lat="48.69667" lon="1.67498">
        <ele>139</ele>
        <time>2024-12-12T09:33:18Z</time>
      </trkpt>
      <trkpt lat="48.69662" lon="1.67486">
        <ele>139</ele>
        <time>2024-12-12T09:33:24Z</time>
      </trkpt>
      <trkpt lat="48.69655" lon="1.67475">
        <ele>139</ele>
        <time>2024-12-12T09:33:32Z</time>
      </trkpt>
      <trkpt lat="48.69649" lon="1.67463">
        <ele>139.1</ele>
        <time>2024-12-12T09:33:40Z</time>
      </trkpt>
      <trkpt lat="48.69643" lon="1.67453">
        <ele>139.1</ele>
        <time>2024-12-12T09:33:48Z</time>
      </trkpt>
      <trkpt lat="48.69636" lon="1.67442">
        <ele>139.1</ele>
        <time>2024-12-12T09:33:55Z</time>
      </trkpt>
      <trkpt lat="48.69629" lon="1.67431">
        <ele>139.5</ele>
        <time>2024-12-12T09:34:04Z</time>
      </trkpt>
      <trkpt lat="48.69622" lon="1.67421">
        <ele>139.9</ele>
        <time>2024-12-12T09:34:20Z</time>
      </trkpt>
      <trkpt lat="48.69623" lon="1.67407">
        <ele>140</ele>
        <time>2024-12-12T09:34:35Z</time>
      </trkpt>
      <trkpt lat="48.69615" lon="1.67416">
        <ele>140</ele>
        <time>2024-12-12T09:35:39Z</time>
      </trkpt>
      <trkpt lat="48.69607" lon="1.67424">
        <ele>139.7</ele>
        <time>2024-12-12T09:35:59Z</time>
      </trkpt>
      <trkpt lat="48.69598" lon="1.6742">
        <ele>139.9</ele>
        <time>2024-12-12T09:37:33Z</time>
      </trkpt>
      <trkpt lat="48.6959" lon="1.67411">
        <ele>140</ele>
        <time>2024-12-12T09:37:41Z</time>
      </trkpt>
      <trkpt lat="48.69582" lon="1.67404">
        <ele>140</ele>
        <time>2024-12-12T09:37:47Z</time>
      </trkpt>
      <trkpt lat="48.69574" lon="1.67399">
        <ele>140</ele>
        <time>2024-12-12T09:37:53Z</time>
      </trkpt>
      <trkpt lat="48.69566" lon="1.67392">
        <ele>140</ele>
        <time>2024-12-12T09:38:00Z</time>
      </trkpt>
      <trkpt lat="48.69558" lon="1.67386">
        <ele>140.1</ele>
        <time>2024-12-12T09:38:08Z</time>
      </trkpt>
      <trkpt lat="48.69549" lon="1.67378">
        <ele>140.3</ele>
        <time>2024-12-12T09:38:15Z</time>
      </trkpt>
      <trkpt lat="48.69541" lon="1.6737">
        <ele>140.3</ele>
        <time>2024-12-12T09:38:23Z</time>
      </trkpt>
      <trkpt lat="48.69533" lon="1.67365">
        <ele>140.2</ele>
        <time>2024-12-12T09:38:30Z</time>
      </trkpt>
      <trkpt lat="48.69525" lon="1.67357">
        <ele>140.1</ele>
        <time>2024-12-12T09:38:38Z</time>
      </trkpt>
      <trkpt lat="48.69517" lon="1.67351">
        <ele>140.2</ele>
        <time>2024-12-12T09:38:45Z</time>
      </trkpt>
      <trkpt lat="48.69508" lon="1.67344">
        <ele>140.2</ele>
        <time>2024-12-12T09:38:53Z</time>
      </trkpt>
      <trkpt lat="48.695" lon="1.67337">
        <ele>140</ele>
        <time>2024-12-12T09:39:00Z</time>
      </trkpt>
      <trkpt lat="48.69492" lon="1.67328">
        <ele>140.1</ele>
        <time>2024-12-12T09:39:07Z</time>
      </trkpt>
      <trkpt lat="48.69485" lon="1.67319">
        <ele>140.2</ele>
        <time>2024-12-12T09:39:14Z</time>
      </trkpt>
      <trkpt lat="48.69478" lon="1.6731">
        <ele>140.2</ele>
        <time>2024-12-12T09:39:20Z</time>
      </trkpt>
      <trkpt lat="48.69469" lon="1.67303">
        <ele>140.1</ele>
        <time>2024-12-12T09:39:28Z</time>
      </trkpt>
      <trkpt lat="48.6946" lon="1.67296">
        <ele>140.2</ele>
        <time>2024-12-12T09:39:36Z</time>
      </trkpt>
      <trkpt lat="48.69451" lon="1.67292">
        <ele>140.1</ele>
        <time>2024-12-12T09:39:43Z</time>
      </trkpt>
      <trkpt lat="48.69443" lon="1.67284">
        <ele>140</ele>
        <time>2024-12-12T09:39:51Z</time>
      </trkpt>
      <trkpt lat="48.69435" lon="1.67275">
        <ele>139.7</ele>
        <time>2024-12-12T09:40:00Z</time>
      </trkpt>
      <trkpt lat="48.69427" lon="1.67269">
        <ele>139.6</ele>
        <time>2024-12-12T09:40:07Z</time>
      </trkpt>
      <trkpt lat="48.69418" lon="1.67264">
        <ele>139.5</ele>
        <time>2024-12-12T09:40:13Z</time>
      </trkpt>
      <trkpt lat="48.6941" lon="1.67258">
        <ele>139.5</ele>
        <time>2024-12-12T09:40:21Z</time>
      </trkpt>
      <trkpt lat="48.69401" lon="1.6725">
        <ele>139.4</ele>
        <time>2024-12-12T09:40:30Z</time>
      </trkpt>
      <trkpt lat="48.69393" lon="1.67243">
        <ele>139.1</ele>
        <time>2024-12-12T09:40:39Z</time>
      </trkpt>
      <trkpt lat="48.69383" lon="1.67238">
        <ele>139</ele>
        <time>2024-12-12T09:40:47Z</time>
      </trkpt>
      <trkpt lat="48.69375" lon="1.67231">
        <ele>139</ele>
        <time>2024-12-12T09:40:54Z</time>
      </trkpt>
      <trkpt lat="48.69365" lon="1.67225">
        <ele>139</ele>
        <time>2024-12-12T09:41:02Z</time>
      </trkpt>
      <trkpt lat="48.69357" lon="1.67216">
        <ele>138.9</ele>
        <time>2024-12-12T09:41:10Z</time>
      </trkpt>
      <trkpt lat="48.69349" lon="1.67208">
        <ele>138.6</ele>
        <time>2024-12-12T09:41:17Z</time>
      </trkpt>
      <trkpt lat="48.69341" lon="1.67202">
        <ele>138.3</ele>
        <time>2024-12-12T09:41:24Z</time>
      </trkpt>
      <trkpt lat="48.69333" lon="1.67194">
        <ele>138</ele>
        <time>2024-12-12T09:41:31Z</time>
      </trkpt>
      <trkpt lat="48.69325" lon="1.67186">
        <ele>138.2</ele>
        <time>2024-12-12T09:41:38Z</time>
      </trkpt>
      <trkpt lat="48.69317" lon="1.67178">
        <ele>138.2</ele>
        <time>2024-12-12T09:41:45Z</time>
      </trkpt>
      <trkpt lat="48.69308" lon="1.67171">
        <ele>138.1</ele>
        <time>2024-12-12T09:41:51Z</time>
      </trkpt>
      <trkpt lat="48.693" lon="1.67165">
        <ele>137.8</ele>
        <time>2024-12-12T09:41:56Z</time>
      </trkpt>
      <trkpt lat="48.69292" lon="1.67155">
        <ele>137.5</ele>
        <time>2024-12-12T09:42:03Z</time>
      </trkpt>
      <trkpt lat="48.69284" lon="1.67146">
        <ele>137.2</ele>
        <time>2024-12-12T09:42:10Z</time>
      </trkpt>
      <trkpt lat="48.69276" lon="1.67139">
        <ele>137</ele>
        <time>2024-12-12T09:42:16Z</time>
      </trkpt>
      <trkpt lat="48.69267" lon="1.67137">
        <ele>137</ele>
        <time>2024-12-12T09:42:21Z</time>
      </trkpt>
      <trkpt lat="48.69257" lon="1.67133">
        <ele>137.1</ele>
        <time>2024-12-12T09:42:26Z</time>
      </trkpt>
      <trkpt lat="48.69249" lon="1.67126">
        <ele>137</ele>
        <time>2024-12-12T09:42:32Z</time>
      </trkpt>
      <trkpt lat="48.6924" lon="1.67121">
        <ele>137</ele>
        <time>2024-12-12T09:42:39Z</time>
      </trkpt>
      <trkpt lat="48.69232" lon="1.67115">
        <ele>137</ele>
        <time>2024-12-12T09:42:46Z</time>
      </trkpt>
      <trkpt lat="48.69224" lon="1.67108">
        <ele>136.9</ele>
        <time>2024-12-12T09:42:52Z</time>
      </trkpt>
      <trkpt lat="48.69217" lon="1.67098">
        <ele>136.6</ele>
        <time>2024-12-12T09:42:59Z</time>
      </trkpt>
      <trkpt lat="48.6921" lon="1.67089">
        <ele>136.6</ele>
        <time>2024-12-12T09:43:05Z</time>
      </trkpt>
      <trkpt lat="48.69202" lon="1.6708">
        <ele>136.6</ele>
        <time>2024-12-12T09:43:12Z</time>
      </trkpt>
      <trkpt lat="48.69194" lon="1.67073">
        <ele>136.7</ele>
        <time>2024-12-12T09:43:19Z</time>
      </trkpt>
      <trkpt lat="48.69185" lon="1.67068">
        <ele>136.6</ele>
        <time>2024-12-12T09:43:27Z</time>
      </trkpt>
      <trkpt lat="48.69176" lon="1.6706">
        <ele>136.7</ele>
        <time>2024-12-12T09:43:34Z</time>
      </trkpt>
      <trkpt lat="48.69169" lon="1.67053">
        <ele>136.9</ele>
        <time>2024-12-12T09:43:41Z</time>
      </trkpt>
      <trkpt lat="48.69159" lon="1.6705">
        <ele>137.3</ele>
        <time>2024-12-12T09:43:48Z</time>
      </trkpt>
      <trkpt lat="48.6915" lon="1.67051">
        <ele>137.6</ele>
        <time>2024-12-12T09:43:55Z</time>
      </trkpt>
      <trkpt lat="48.6914" lon="1.67052">
        <ele>138</ele>
        <time>2024-12-12T09:44:03Z</time>
      </trkpt>
      <trkpt lat="48.6913" lon="1.67053">
        <ele>138.6</ele>
        <time>2024-12-12T09:44:10Z</time>
      </trkpt>
      <trkpt lat="48.69121" lon="1.6705">
        <ele>139.3</ele>
        <time>2024-12-12T09:44:17Z</time>
      </trkpt>
      <trkpt lat="48.69111" lon="1.6705">
        <ele>140</ele>
        <time>2024-12-12T09:44:24Z</time>
      </trkpt>
      <trkpt lat="48.69102" lon="1.67047">
        <ele>140.3</ele>
        <time>2024-12-12T09:44:31Z</time>
      </trkpt>
      <trkpt lat="48.69093" lon="1.67042">
        <ele>140.6</ele>
        <time>2024-12-12T09:44:39Z</time>
      </trkpt>
      <trkpt lat="48.69084" lon="1.67037">
        <ele>141</ele>
        <time>2024-12-12T09:44:46Z</time>
      </trkpt>
      <trkpt lat="48.69075" lon="1.67032">
        <ele>141.6</ele>
        <time>2024-12-12T09:44:53Z</time>
      </trkpt>
      <trkpt lat="48.69066" lon="1.67026">
        <ele>142.2</ele>
        <time>2024-12-12T09:45:00Z</time>
      </trkpt>
      <trkpt lat="48.69058" lon="1.67021">
        <ele>142.9</ele>
        <time>2024-12-12T09:45:07Z</time>
      </trkpt>
      <trkpt lat="48.69049" lon="1.67016">
        <ele>143.5</ele>
        <time>2024-12-12T09:45:14Z</time>
      </trkpt>
      <trkpt lat="48.6904" lon="1.67009">
        <ele>144.1</ele>
        <time>2024-12-12T09:45:22Z</time>
      </trkpt>
      <trkpt lat="48.69032" lon="1.67004">
        <ele>144.7</ele>
        <time>2024-12-12T09:45:29Z</time>
      </trkpt>
      <trkpt lat="48.69022" lon="1.67001">
        <ele>145.5</ele>
        <time>2024-12-12T09:45:37Z</time>
      </trkpt>
      <trkpt lat="48.69013" lon="1.67">
        <ele>146.1</ele>
        <time>2024-12-12T09:45:44Z</time>
      </trkpt>
      <trkpt lat="48.69004" lon="1.66998">
        <ele>146.7</ele>
        <time>2024-12-12T09:45:51Z</time>
      </trkpt>
      <trkpt lat="48.68994" lon="1.66996">
        <ele>147.5</ele>
        <time>2024-12-12T09:45:58Z</time>
      </trkpt>
      <trkpt lat="48.68984" lon="1.66995">
        <ele>148.5</ele>
        <time>2024-12-12T09:46:05Z</time>
      </trkpt>
      <trkpt lat="48.68974" lon="1.66993">
        <ele>149.3</ele>
        <time>2024-12-12T09:46:13Z</time>
      </trkpt>
      <trkpt lat="48.68965" lon="1.66993">
        <ele>149.7</ele>
        <time>2024-12-12T09:46:20Z</time>
      </trkpt>
      <trkpt lat="48.68955" lon="1.66992">
        <ele>150</ele>
        <time>2024-12-12T09:46:27Z</time>
      </trkpt>
      <trkpt lat="48.68945" lon="1.66994">
        <ele>150.6</ele>
        <time>2024-12-12T09:46:34Z</time>
      </trkpt>
      <trkpt lat="48.68935" lon="1.66994">
        <ele>150.6</ele>
        <time>2024-12-12T09:46:40Z</time>
      </trkpt>
      <trkpt lat="48.68925" lon="1.66995">
        <ele>150.6</ele>
        <time>2024-12-12T09:46:46Z</time>
      </trkpt>
      <trkpt lat="48.68915" lon="1.66996">
        <ele>150.7</ele>
        <time>2024-12-12T09:46:53Z</time>
      </trkpt>
      <trkpt lat="48.68906" lon="1.66998">
        <ele>150.4</ele>
        <time>2024-12-12T09:46:59Z</time>
      </trkpt>
      <trkpt lat="48.68897" lon="1.66999">
        <ele>150.2</ele>
        <time>2024-12-12T09:47:06Z</time>
      </trkpt>
      <trkpt lat="48.68887" lon="1.67001">
        <ele>149.9</ele>
        <time>2024-12-12T09:47:13Z</time>
      </trkpt>
      <trkpt lat="48.68878" lon="1.67003">
        <ele>149.4</ele>
        <time>2024-12-12T09:47:19Z</time>
      </trkpt>
      <trkpt lat="48.68868" lon="1.67006">
        <ele>148.9</ele>
        <time>2024-12-12T09:47:26Z</time>
      </trkpt>
      <trkpt lat="48.68859" lon="1.6701">
        <ele>148.6</ele>
        <time>2024-12-12T09:47:32Z</time>
      </trkpt>
      <trkpt lat="48.68849" lon="1.67013">
        <ele>148.3</ele>
        <time>2024-12-12T09:47:38Z</time>
      </trkpt>
      <trkpt lat="48.6884" lon="1.67017">
        <ele>148</ele>
        <time>2024-12-12T09:47:45Z</time>
      </trkpt>
      <trkpt lat="48.68831" lon="1.6702">
        <ele>147.6</ele>
        <time>2024-12-12T09:47:51Z</time>
      </trkpt>
      <trkpt lat="48.68822" lon="1.67022">
        <ele>147.4</ele>
        <time>2024-12-12T09:47:58Z</time>
      </trkpt>
      <trkpt lat="48.68812" lon="1.67026">
        <ele>147.1</ele>
        <time>2024-12-12T09:48:05Z</time>
      </trkpt>
      <trkpt lat="48.68802" lon="1.67026">
        <ele>146.9</ele>
        <time>2024-12-12T09:48:12Z</time>
      </trkpt>
      <trkpt lat="48.68793" lon="1.67025">
        <ele>146.9</ele>
        <time>2024-12-12T09:48:19Z</time>
      </trkpt>
      <trkpt lat="48.68782" lon="1.67024">
        <ele>146.8</ele>
        <time>2024-12-12T09:48:26Z</time>
      </trkpt>
      <trkpt lat="48.68773" lon="1.67021">
        <ele>146.5</ele>
        <time>2024-12-12T09:48:33Z</time>
      </trkpt>
      <trkpt lat="48.68764" lon="1.67017">
        <ele>146.2</ele>
        <time>2024-12-12T09:48:40Z</time>
      </trkpt>
      <trkpt lat="48.68753" lon="1.67015">
        <ele>146.1</ele>
        <time>2024-12-12T09:48:48Z</time>
      </trkpt>
      <trkpt lat="48.68743" lon="1.67014">
        <ele>146</ele>
        <time>2024-12-12T09:48:55Z</time>
      </trkpt>
      <trkpt lat="48.68734" lon="1.67015">
        <ele>146</ele>
        <time>2024-12-12T09:49:01Z</time>
      </trkpt>
      <trkpt lat="48.68724" lon="1.67016">
        <ele>146</ele>
        <time>2024-12-12T09:49:08Z</time>
      </trkpt>
      <trkpt lat="48.68715" lon="1.67018">
        <ele>146</ele>
        <time>2024-12-12T09:49:16Z</time>
      </trkpt>
      <trkpt lat="48.68706" lon="1.67023">
        <ele>146</ele>
        <time>2024-12-12T09:49:22Z</time>
      </trkpt>
      <trkpt lat="48.68697" lon="1.67027">
        <ele>146</ele>
        <time>2024-12-12T09:49:29Z</time>
      </trkpt>
      <trkpt lat="48.68687" lon="1.67031">
        <ele>146.1</ele>
        <time>2024-12-12T09:49:36Z</time>
      </trkpt>
      <trkpt lat="48.68678" lon="1.67037">
        <ele>146.1</ele>
        <time>2024-12-12T09:49:43Z</time>
      </trkpt>
      <trkpt lat="48.68668" lon="1.67043">
        <ele>146</ele>
        <time>2024-12-12T09:49:51Z</time>
      </trkpt>
      <trkpt lat="48.68659" lon="1.67047">
        <ele>145.7</ele>
        <time>2024-12-12T09:49:58Z</time>
      </trkpt>
      <trkpt lat="48.68651" lon="1.67052">
        <ele>145.4</ele>
        <time>2024-12-12T09:50:03Z</time>
      </trkpt>
      <trkpt lat="48.68641" lon="1.67056">
        <ele>145.1</ele>
        <time>2024-12-12T09:50:10Z</time>
      </trkpt>
      <trkpt lat="48.68632" lon="1.6706">
        <ele>145.1</ele>
        <time>2024-12-12T09:50:17Z</time>
      </trkpt>
      <trkpt lat="48.68622" lon="1.67064">
        <ele>145.1</ele>
        <time>2024-12-12T09:50:24Z</time>
      </trkpt>
      <trkpt lat="48.68613" lon="1.6707">
        <ele>145</ele>
        <time>2024-12-12T09:50:30Z</time>
      </trkpt>
      <trkpt lat="48.68603" lon="1.67074">
        <ele>144.7</ele>
        <time>2024-12-12T09:50:37Z</time>
      </trkpt>
      <trkpt lat="48.68594" lon="1.67078">
        <ele>144.4</ele>
        <time>2024-12-12T09:50:44Z</time>
      </trkpt>
      <trkpt lat="48.68585" lon="1.67082">
        <ele>144.1</ele>
        <time>2024-12-12T09:50:50Z</time>
      </trkpt>
      <trkpt lat="48.68577" lon="1.67089">
        <ele>143.8</ele>
        <time>2024-12-12T09:50:56Z</time>
      </trkpt>
      <trkpt lat="48.68568" lon="1.67095">
        <ele>143.4</ele>
        <time>2024-12-12T09:51:02Z</time>
      </trkpt>
      <trkpt lat="48.68559" lon="1.67099">
        <ele>143.1</ele>
        <time>2024-12-12T09:51:08Z</time>
      </trkpt>
      <trkpt lat="48.6855" lon="1.67105">
        <ele>143</ele>
        <time>2024-12-12T09:51:14Z</time>
      </trkpt>
      <trkpt lat="48.68541" lon="1.67111">
        <ele>143</ele>
        <time>2024-12-12T09:51:21Z</time>
      </trkpt>
      <trkpt lat="48.68531" lon="1.67117">
        <ele>143</ele>
        <time>2024-12-12T09:51:27Z</time>
      </trkpt>
      <trkpt lat="48.68522" lon="1.6712">
        <ele>142.9</ele>
        <time>2024-12-12T09:51:33Z</time>
      </trkpt>
      <trkpt lat="48.68513" lon="1.67125">
        <ele>142.7</ele>
        <time>2024-12-12T09:51:39Z</time>
      </trkpt>
      <trkpt lat="48.68504" lon="1.67129">
        <ele>142.7</ele>
        <time>2024-12-12T09:51:45Z</time>
      </trkpt>
      <trkpt lat="48.68496" lon="1.67136">
        <ele>142.8</ele>
        <time>2024-12-12T09:51:52Z</time>
      </trkpt>
      <trkpt lat="48.68488" lon="1.67141">
        <ele>142.6</ele>
        <time>2024-12-12T09:52:00Z</time>
      </trkpt>
      <trkpt lat="48.68479" lon="1.67147">
        <ele>142.5</ele>
        <time>2024-12-12T09:52:07Z</time>
      </trkpt>
      <trkpt lat="48.6847" lon="1.67152">
        <ele>142.5</ele>
        <time>2024-12-12T09:52:14Z</time>
      </trkpt>
      <trkpt lat="48.68461" lon="1.6716">
        <ele>142.7</ele>
        <time>2024-12-12T09:52:21Z</time>
      </trkpt>
      <trkpt lat="48.68453" lon="1.67165">
        <ele>142.9</ele>
        <time>2024-12-12T09:52:28Z</time>
      </trkpt>
      <trkpt lat="48.68444" lon="1.67167">
        <ele>143</ele>
        <time>2024-12-12T09:52:36Z</time>
      </trkpt>
      <trkpt lat="48.68434" lon="1.67169">
        <ele>143</ele>
        <time>2024-12-12T09:52:43Z</time>
      </trkpt>
      <trkpt lat="48.68425" lon="1.67175">
        <ele>143</ele>
        <time>2024-12-12T09:52:51Z</time>
      </trkpt>
      <trkpt lat="48.68416" lon="1.6718">
        <ele>143</ele>
        <time>2024-12-12T09:52:58Z</time>
      </trkpt>
      <trkpt lat="48.68407" lon="1.67187">
        <ele>143.2</ele>
        <time>2024-12-12T09:53:06Z</time>
      </trkpt>
      <trkpt lat="48.68399" lon="1.67194">
        <ele>143.6</ele>
        <time>2024-12-12T09:53:13Z</time>
      </trkpt>
      <trkpt lat="48.6839" lon="1.672">
        <ele>144</ele>
        <time>2024-12-12T09:53:19Z</time>
      </trkpt>
      <trkpt lat="48.68382" lon="1.67205">
        <ele>144.1</ele>
        <time>2024-12-12T09:53:27Z</time>
      </trkpt>
      <trkpt lat="48.68374" lon="1.67213">
        <ele>144.4</ele>
        <time>2024-12-12T09:53:34Z</time>
      </trkpt>
      <trkpt lat="48.6837" lon="1.67227">
        <ele>144.7</ele>
        <time>2024-12-12T09:53:43Z</time>
      </trkpt>
      <trkpt lat="48.68372" lon="1.67241">
        <ele>144.9</ele>
        <time>2024-12-12T09:53:51Z</time>
      </trkpt>
      <trkpt lat="48.68376" lon="1.67255">
        <ele>145.1</ele>
        <time>2024-12-12T09:53:58Z</time>
      </trkpt>
      <trkpt lat="48.68378" lon="1.67269">
        <ele>145.3</ele>
        <time>2024-12-12T09:54:05Z</time>
      </trkpt>
      <trkpt lat="48.68382" lon="1.67282">
        <ele>145.3</ele>
        <time>2024-12-12T09:54:12Z</time>
      </trkpt>
      <trkpt lat="48.68386" lon="1.67295">
        <ele>145.7</ele>
        <time>2024-12-12T09:54:19Z</time>
      </trkpt>
      <trkpt lat="48.68389" lon="1.67309">
        <ele>146</ele>
        <time>2024-12-12T09:54:26Z</time>
      </trkpt>
      <trkpt lat="48.68392" lon="1.67324">
        <ele>146</ele>
        <time>2024-12-12T09:54:33Z</time>
      </trkpt>
      <trkpt lat="48.68394" lon="1.67338">
        <ele>146.2</ele>
        <time>2024-12-12T09:54:40Z</time>
      </trkpt>
      <trkpt lat="48.68398" lon="1.67351">
        <ele>146.6</ele>
        <time>2024-12-12T09:54:46Z</time>
      </trkpt>
      <trkpt lat="48.68401" lon="1.67364">
        <ele>147.1</ele>
        <time>2024-12-12T09:54:51Z</time>
      </trkpt>
      <trkpt lat="48.68406" lon="1.67378">
        <ele>148</ele>
        <time>2024-12-12T09:54:58Z</time>
      </trkpt>
      <trkpt lat="48.68411" lon="1.67389">
        <ele>148.8</ele>
        <time>2024-12-12T09:55:04Z</time>
      </trkpt>
      <trkpt lat="48.68415" lon="1.67403">
        <ele>149.4</ele>
        <time>2024-12-12T09:55:12Z</time>
      </trkpt>
      <trkpt lat="48.68416" lon="1.67419">
        <ele>150.1</ele>
        <time>2024-12-12T09:55:18Z</time>
      </trkpt>
      <trkpt lat="48.6842" lon="1.67433">
        <ele>150.9</ele>
        <time>2024-12-12T09:55:24Z</time>
      </trkpt>
      <trkpt lat="48.68422" lon="1.67447">
        <ele>151.7</ele>
        <time>2024-12-12T09:55:32Z</time>
      </trkpt>
      <trkpt lat="48.68428" lon="1.67459">
        <ele>152.5</ele>
        <time>2024-12-12T09:55:39Z</time>
      </trkpt>
      <trkpt lat="48.68432" lon="1.67472">
        <ele>153.1</ele>
        <time>2024-12-12T09:55:47Z</time>
      </trkpt>
      <trkpt lat="48.68433" lon="1.67486">
        <ele>153.2</ele>
        <time>2024-12-12T09:55:54Z</time>
      </trkpt>
      <trkpt lat="48.68435" lon="1.67502">
        <ele>153.3</ele>
        <time>2024-12-12T09:56:01Z</time>
      </trkpt>
      <trkpt lat="48.68439" lon="1.67517">
        <ele>153.6</ele>
        <time>2024-12-12T09:56:07Z</time>
      </trkpt>
      <trkpt lat="48.68442" lon="1.6753">
        <ele>153.8</ele>
        <time>2024-12-12T09:56:16Z</time>
      </trkpt>
      <trkpt lat="48.68446" lon="1.67543">
        <ele>154.1</ele>
        <time>2024-12-12T09:56:23Z</time>
      </trkpt>
      <trkpt lat="48.68451" lon="1.67557">
        <ele>154.5</ele>
        <time>2024-12-12T09:56:29Z</time>
      </trkpt>
      <trkpt lat="48.68454" lon="1.67572">
        <ele>154.9</ele>
        <time>2024-12-12T09:56:36Z</time>
      </trkpt>
      <trkpt lat="48.68456" lon="1.67586">
        <ele>155.2</ele>
        <time>2024-12-12T09:56:42Z</time>
      </trkpt>
      <trkpt lat="48.68457" lon="1.67602">
        <ele>155.3</ele>
        <time>2024-12-12T09:56:49Z</time>
      </trkpt>
      <trkpt lat="48.68459" lon="1.67616">
        <ele>155.6</ele>
        <time>2024-12-12T09:56:56Z</time>
      </trkpt>
      <trkpt lat="48.68461" lon="1.6763">
        <ele>156.1</ele>
        <time>2024-12-12T09:57:03Z</time>
      </trkpt>
      <trkpt lat="48.68463" lon="1.67644">
        <ele>156.3</ele>
        <time>2024-12-12T09:57:09Z</time>
      </trkpt>
      <trkpt lat="48.68463" lon="1.67659">
        <ele>156.3</ele>
        <time>2024-12-12T09:57:16Z</time>
      </trkpt>
      <trkpt lat="48.68464" lon="1.67675">
        <ele>156.4</ele>
        <time>2024-12-12T09:57:23Z</time>
      </trkpt>
      <trkpt lat="48.68466" lon="1.67688">
        <ele>156.6</ele>
        <time>2024-12-12T09:57:29Z</time>
      </trkpt>
      <trkpt lat="48.68469" lon="1.67703">
        <ele>157.1</ele>
        <time>2024-12-12T09:57:36Z</time>
      </trkpt>
      <trkpt lat="48.68471" lon="1.67717">
        <ele>157.8</ele>
        <time>2024-12-12T09:57:43Z</time>
      </trkpt>
      <trkpt lat="48.68472" lon="1.67732">
        <ele>158.3</ele>
        <time>2024-12-12T09:57:49Z</time>
      </trkpt>
      <trkpt lat="48.68474" lon="1.67747">
        <ele>158.9</ele>
        <time>2024-12-12T09:57:56Z</time>
      </trkpt>
      <trkpt lat="48.68475" lon="1.67761">
        <ele>159.5</ele>
        <time>2024-12-12T09:58:04Z</time>
      </trkpt>
      <trkpt lat="48.6848" lon="1.67774">
        <ele>160.4</ele>
        <time>2024-12-12T09:58:10Z</time>
      </trkpt>
      <trkpt lat="48.68486" lon="1.67787">
        <ele>161.3</ele>
        <time>2024-12-12T09:58:17Z</time>
      </trkpt>
      <trkpt lat="48.68485" lon="1.67801">
        <ele>161.8</ele>
        <time>2024-12-12T09:58:23Z</time>
      </trkpt>
      <trkpt lat="48.68485" lon="1.67815">
        <ele>162.3</ele>
        <time>2024-12-12T09:58:30Z</time>
      </trkpt>
      <trkpt lat="48.68487" lon="1.67829">
        <ele>162.9</ele>
        <time>2024-12-12T09:58:39Z</time>
      </trkpt>
      <trkpt lat="48.68488" lon="1.67843">
        <ele>163.5</ele>
        <time>2024-12-12T09:58:47Z</time>
      </trkpt>
      <trkpt lat="48.68489" lon="1.67858">
        <ele>164.1</ele>
        <time>2024-12-12T09:58:55Z</time>
      </trkpt>
      <trkpt lat="48.68491" lon="1.67872">
        <ele>164.4</ele>
        <time>2024-12-12T09:59:02Z</time>
      </trkpt>
      <trkpt lat="48.68491" lon="1.67886">
        <ele>164.4</ele>
        <time>2024-12-12T09:59:09Z</time>
      </trkpt>
      <trkpt lat="48.68494" lon="1.679">
        <ele>165</ele>
        <time>2024-12-12T09:59:16Z</time>
      </trkpt>
      <trkpt lat="48.68498" lon="1.67913">
        <ele>165.7</ele>
        <time>2024-12-12T09:59:24Z</time>
      </trkpt>
      <trkpt lat="48.68499" lon="1.67927">
        <ele>165.9</ele>
        <time>2024-12-12T09:59:31Z</time>
      </trkpt>
      <trkpt lat="48.68502" lon="1.67942">
        <ele>166.1</ele>
        <time>2024-12-12T09:59:38Z</time>
      </trkpt>
      <trkpt lat="48.68506" lon="1.67955">
        <ele>166.2</ele>
        <time>2024-12-12T09:59:46Z</time>
      </trkpt>
      <trkpt lat="48.68506" lon="1.67969">
        <ele>166.2</ele>
        <time>2024-12-12T09:59:52Z</time>
      </trkpt>
      <trkpt lat="48.6851" lon="1.67984">
        <ele>166.1</ele>
        <time>2024-12-12T09:59:59Z</time>
      </trkpt>
      <trkpt lat="48.68508" lon="1.68">
        <ele>165.6</ele>
        <time>2024-12-12T10:00:06Z</time>
      </trkpt>
      <trkpt lat="48.68513" lon="1.68013">
        <ele>165.9</ele>
        <time>2024-12-12T10:00:12Z</time>
      </trkpt>
      <trkpt lat="48.68518" lon="1.68025">
        <ele>166.3</ele>
        <time>2024-12-12T10:00:19Z</time>
      </trkpt>
      <trkpt lat="48.68518" lon="1.68039">
        <ele>166.2</ele>
        <time>2024-12-12T10:00:27Z</time>
      </trkpt>
      <trkpt lat="48.68521" lon="1.68054">
        <ele>166.3</ele>
        <time>2024-12-12T10:00:36Z</time>
      </trkpt>
      <trkpt lat="48.68527" lon="1.68067">
        <ele>166.9</ele>
        <time>2024-12-12T10:00:45Z</time>
      </trkpt>
      <trkpt lat="48.68532" lon="1.68078">
        <ele>167.3</ele>
        <time>2024-12-12T10:00:52Z</time>
      </trkpt>
      <trkpt lat="48.68532" lon="1.68092">
        <ele>167.3</ele>
        <time>2024-12-12T10:00:59Z</time>
      </trkpt>
      <trkpt lat="48.68536" lon="1.68105">
        <ele>167.6</ele>
        <time>2024-12-12T10:01:05Z</time>
      </trkpt>
      <trkpt lat="48.68536" lon="1.68119">
        <ele>167.6</ele>
        <time>2024-12-12T10:01:12Z</time>
      </trkpt>
      <trkpt lat="48.68536" lon="1.68133">
        <ele>167.6</ele>
        <time>2024-12-12T10:01:21Z</time>
      </trkpt>
      <trkpt lat="48.68539" lon="1.68147">
        <ele>167.8</ele>
        <time>2024-12-12T10:01:28Z</time>
      </trkpt>
      <trkpt lat="48.68539" lon="1.68162">
        <ele>167.8</ele>
        <time>2024-12-12T10:01:36Z</time>
      </trkpt>
      <trkpt lat="48.68541" lon="1.68177">
        <ele>168.3</ele>
        <time>2024-12-12T10:01:44Z</time>
      </trkpt>
      <trkpt lat="48.68541" lon="1.68193">
        <ele>168.9</ele>
        <time>2024-12-12T10:01:52Z</time>
      </trkpt>
      <trkpt lat="48.68542" lon="1.68206">
        <ele>169.2</ele>
        <time>2024-12-12T10:01:59Z</time>
      </trkpt>
      <trkpt lat="48.68545" lon="1.6822">
        <ele>169.6</ele>
        <time>2024-12-12T10:02:05Z</time>
      </trkpt>
      <trkpt lat="48.68548" lon="1.68233">
        <ele>169.8</ele>
        <time>2024-12-12T10:02:12Z</time>
      </trkpt>
      <trkpt lat="48.68552" lon="1.68247">
        <ele>170</ele>
        <time>2024-12-12T10:02:18Z</time>
      </trkpt>
      <trkpt lat="48.68553" lon="1.68261">
        <ele>170.4</ele>
        <time>2024-12-12T10:02:25Z</time>
      </trkpt>
      <trkpt lat="48.68558" lon="1.68274">
        <ele>170.9</ele>
        <time>2024-12-12T10:02:33Z</time>
      </trkpt>
      <trkpt lat="48.68558" lon="1.68288">
        <ele>171</ele>
        <time>2024-12-12T10:02:40Z</time>
      </trkpt>
      <trkpt lat="48.6856" lon="1.68303">
        <ele>171</ele>
        <time>2024-12-12T10:02:48Z</time>
      </trkpt>
      <trkpt lat="48.68562" lon="1.68318">
        <ele>171</ele>
        <time>2024-12-12T10:02:56Z</time>
      </trkpt>
      <trkpt lat="48.68564" lon="1.68333">
        <ele>171</ele>
        <time>2024-12-12T10:03:04Z</time>
      </trkpt>
      <trkpt lat="48.68563" lon="1.68347">
        <ele>171</ele>
        <time>2024-12-12T10:03:11Z</time>
      </trkpt>
      <trkpt lat="48.68566" lon="1.6836">
        <ele>171</ele>
        <time>2024-12-12T10:03:17Z</time>
      </trkpt>
      <trkpt lat="48.68567" lon="1.68376">
        <ele>171</ele>
        <time>2024-12-12T10:03:23Z</time>
      </trkpt>
      <trkpt lat="48.68571" lon="1.6839">
        <ele>171</ele>
        <time>2024-12-12T10:03:29Z</time>
      </trkpt>
      <trkpt lat="48.68572" lon="1.68403">
        <ele>170.8</ele>
        <time>2024-12-12T10:03:36Z</time>
      </trkpt>
      <trkpt lat="48.68574" lon="1.68418">
        <ele>170.7</ele>
        <time>2024-12-12T10:03:44Z</time>
      </trkpt>
      <trkpt lat="48.68573" lon="1.68432">
        <ele>170.6</ele>
        <time>2024-12-12T10:03:52Z</time>
      </trkpt>
      <trkpt lat="48.68572" lon="1.68446">
        <ele>170.6</ele>
        <time>2024-12-12T10:03:59Z</time>
      </trkpt>
      <trkpt lat="48.68572" lon="1.6846">
        <ele>170.6</ele>
        <time>2024-12-12T10:04:06Z</time>
      </trkpt>
      <trkpt lat="48.68575" lon="1.68475">
        <ele>170.7</ele>
        <time>2024-12-12T10:04:14Z</time>
      </trkpt>
      <trkpt lat="48.68576" lon="1.68489">
        <ele>170.7</ele>
        <time>2024-12-12T10:04:21Z</time>
      </trkpt>
      <trkpt lat="48.6858" lon="1.68503">
        <ele>170.8</ele>
        <time>2024-12-12T10:04:28Z</time>
      </trkpt>
      <trkpt lat="48.68581" lon="1.68519">
        <ele>170.3</ele>
        <time>2024-12-12T10:04:35Z</time>
      </trkpt>
      <trkpt lat="48.68584" lon="1.68534">
        <ele>170</ele>
        <time>2024-12-12T10:04:41Z</time>
      </trkpt>
      <trkpt lat="48.68587" lon="1.68548">
        <ele>170.1</ele>
        <time>2024-12-12T10:04:48Z</time>
      </trkpt>
      <trkpt lat="48.68588" lon="1.68562">
        <ele>170.4</ele>
        <time>2024-12-12T10:04:57Z</time>
      </trkpt>
      <trkpt lat="48.6859" lon="1.68576">
        <ele>170.8</ele>
        <time>2024-12-12T10:05:05Z</time>
      </trkpt>
      <trkpt lat="48.68592" lon="1.6859">
        <ele>171</ele>
        <time>2024-12-12T10:05:13Z</time>
      </trkpt>
      <trkpt lat="48.68594" lon="1.68604">
        <ele>171</ele>
        <time>2024-12-12T10:05:20Z</time>
      </trkpt>
      <trkpt lat="48.68598" lon="1.68616">
        <ele>171</ele>
        <time>2024-12-12T10:05:27Z</time>
      </trkpt>
      <trkpt lat="48.686" lon="1.68631">
        <ele>171</ele>
        <time>2024-12-12T10:05:35Z</time>
      </trkpt>
      <trkpt lat="48.68604" lon="1.68645">
        <ele>170.9</ele>
        <time>2024-12-12T10:05:41Z</time>
      </trkpt>
      <trkpt lat="48.68606" lon="1.68659">
        <ele>170.9</ele>
        <time>2024-12-12T10:05:48Z</time>
      </trkpt>
      <trkpt lat="48.68608" lon="1.68674">
        <ele>170.7</ele>
        <time>2024-12-12T10:05:56Z</time>
      </trkpt>
      <trkpt lat="48.68609" lon="1.68689">
        <ele>170.2</ele>
        <time>2024-12-12T10:06:04Z</time>
      </trkpt>
      <trkpt lat="48.68611" lon="1.68703">
        <ele>170</ele>
        <time>2024-12-12T10:06:11Z</time>
      </trkpt>
      <trkpt lat="48.68611" lon="1.68718">
        <ele>170</ele>
        <time>2024-12-12T10:06:18Z</time>
      </trkpt>
      <trkpt lat="48.68611" lon="1.68733">
        <ele>169.6</ele>
        <time>2024-12-12T10:06:25Z</time>
      </trkpt>
      <trkpt lat="48.68612" lon="1.68748">
        <ele>169.1</ele>
        <time>2024-12-12T10:06:30Z</time>
      </trkpt>
      <trkpt lat="48.68613" lon="1.68763">
        <ele>168.6</ele>
        <time>2024-12-12T10:06:37Z</time>
      </trkpt>
      <trkpt lat="48.68619" lon="1.68776">
        <ele>168.1</ele>
        <time>2024-12-12T10:06:43Z</time>
      </trkpt>
      <trkpt lat="48.68621" lon="1.6879">
        <ele>167.5</ele>
        <time>2024-12-12T10:06:50Z</time>
      </trkpt>
      <trkpt lat="48.68622" lon="1.68805">
        <ele>167</ele>
        <time>2024-12-12T10:06:56Z</time>
      </trkpt>
      <trkpt lat="48.68622" lon="1.6882">
        <ele>166.5</ele>
        <time>2024-12-12T10:07:03Z</time>
      </trkpt>
      <trkpt lat="48.68624" lon="1.68833">
        <ele>166</ele>
        <time>2024-12-12T10:07:10Z</time>
      </trkpt>
      <trkpt lat="48.68623" lon="1.68847">
        <ele>165.5</ele>
        <time>2024-12-12T10:07:17Z</time>
      </trkpt>
      <trkpt lat="48.68625" lon="1.68861">
        <ele>165</ele>
        <time>2024-12-12T10:07:26Z</time>
      </trkpt>
      <trkpt lat="48.68629" lon="1.68875">
        <ele>164.2</ele>
        <time>2024-12-12T10:07:33Z</time>
      </trkpt>
      <trkpt lat="48.68628" lon="1.6889">
        <ele>163.3</ele>
        <time>2024-12-12T10:07:40Z</time>
      </trkpt>
      <trkpt lat="48.68628" lon="1.68904">
        <ele>162.6</ele>
        <time>2024-12-12T10:07:47Z</time>
      </trkpt>
      <trkpt lat="48.68624" lon="1.68918">
        <ele>162</ele>
        <time>2024-12-12T10:07:54Z</time>
      </trkpt>
      <trkpt lat="48.68624" lon="1.68933">
        <ele>161.8</ele>
        <time>2024-12-12T10:08:02Z</time>
      </trkpt>
      <trkpt lat="48.68625" lon="1.68948">
        <ele>161.3</ele>
        <time>2024-12-12T10:08:09Z</time>
      </trkpt>
      <trkpt lat="48.68627" lon="1.68962">
        <ele>160.3</ele>
        <time>2024-12-12T10:08:16Z</time>
      </trkpt>
      <trkpt lat="48.68631" lon="1.68974">
        <ele>159</ele>
        <time>2024-12-12T10:08:22Z</time>
      </trkpt>
      <trkpt lat="48.68635" lon="1.68986">
        <ele>158</ele>
        <time>2024-12-12T10:08:28Z</time>
      </trkpt>
      <trkpt lat="48.68637" lon="1.69002">
        <ele>157.2</ele>
        <time>2024-12-12T10:08:34Z</time>
      </trkpt>
      <trkpt lat="48.68639" lon="1.69016">
        <ele>156.4</ele>
        <time>2024-12-12T10:08:41Z</time>
      </trkpt>
      <trkpt lat="48.6864" lon="1.69031">
        <ele>155.8</ele>
        <time>2024-12-12T10:08:47Z</time>
      </trkpt>
      <trkpt lat="48.68642" lon="1.69046">
        <ele>155.1</ele>
        <time>2024-12-12T10:08:54Z</time>
      </trkpt>
      <trkpt lat="48.68644" lon="1.6906">
        <ele>154.5</ele>
        <time>2024-12-12T10:09:01Z</time>
      </trkpt>
      <trkpt lat="48.68645" lon="1.69076">
        <ele>153.9</ele>
        <time>2024-12-12T10:09:08Z</time>
      </trkpt>
      <trkpt lat="48.68647" lon="1.6909">
        <ele>153.2</ele>
        <time>2024-12-12T10:09:14Z</time>
      </trkpt>
      <trkpt lat="48.68644" lon="1.69104">
        <ele>152.9</ele>
        <time>2024-12-12T10:09:21Z</time>
      </trkpt>
      <trkpt lat="48.68644" lon="1.69119">
        <ele>152.4</ele>
        <time>2024-12-12T10:09:28Z</time>
      </trkpt>
      <trkpt lat="48.68644" lon="1.69133">
        <ele>152</ele>
        <time>2024-12-12T10:09:34Z</time>
      </trkpt>
      <trkpt lat="48.68647" lon="1.69146">
        <ele>151.7</ele>
        <time>2024-12-12T10:09:40Z</time>
      </trkpt>
      <trkpt lat="48.68646" lon="1.6916">
        <ele>151.7</ele>
        <time>2024-12-12T10:09:47Z</time>
      </trkpt>
      <trkpt lat="48.68646" lon="1.69175">
        <ele>151.9</ele>
        <time>2024-12-12T10:09:54Z</time>
      </trkpt>
      <trkpt lat="48.68647" lon="1.6919">
        <ele>152.3</ele>
        <time>2024-12-12T10:10:02Z</time>
      </trkpt>
      <trkpt lat="48.68646" lon="1.69206">
        <ele>152.5</ele>
        <time>2024-12-12T10:10:11Z</time>
      </trkpt>
      <trkpt lat="48.68645" lon="1.6922">
        <ele>152.5</ele>
        <time>2024-12-12T10:10:19Z</time>
      </trkpt>
      <trkpt lat="48.68644" lon="1.69235">
        <ele>152.6</ele>
        <time>2024-12-12T10:10:27Z</time>
      </trkpt>
      <trkpt lat="48.68649" lon="1.69248">
        <ele>152.3</ele>
        <time>2024-12-12T10:10:34Z</time>
      </trkpt>
      <trkpt lat="48.68651" lon="1.69262">
        <ele>151.9</ele>
        <time>2024-12-12T10:10:40Z</time>
      </trkpt>
      <trkpt lat="48.68651" lon="1.69276">
        <ele>151.6</ele>
        <time>2024-12-12T10:10:46Z</time>
      </trkpt>
      <trkpt lat="48.68652" lon="1.69289">
        <ele>151.1</ele>
        <time>2024-12-12T10:10:52Z</time>
      </trkpt>
      <trkpt lat="48.68655" lon="1.69303">
        <ele>150.5</ele>
        <time>2024-12-12T10:10:59Z</time>
      </trkpt>
      <trkpt lat="48.68654" lon="1.69318">
        <ele>150</ele>
        <time>2024-12-12T10:11:06Z</time>
      </trkpt>
      <trkpt lat="48.68652" lon="1.69333">
        <ele>149.5</ele>
        <time>2024-12-12T10:11:13Z</time>
      </trkpt>
      <trkpt lat="48.68652" lon="1.69349">
        <ele>149.5</ele>
        <time>2024-12-12T10:11:19Z</time>
      </trkpt>
      <trkpt lat="48.68654" lon="1.69363">
        <ele>149.5</ele>
        <time>2024-12-12T10:11:24Z</time>
      </trkpt>
      <trkpt lat="48.68655" lon="1.69377">
        <ele>149.4</ele>
        <time>2024-12-12T10:11:31Z</time>
      </trkpt>
      <trkpt lat="48.68659" lon="1.6939">
        <ele>149.3</ele>
        <time>2024-12-12T10:11:37Z</time>
      </trkpt>
      <trkpt lat="48.68659" lon="1.69405">
        <ele>149.3</ele>
        <time>2024-12-12T10:11:45Z</time>
      </trkpt>
      <trkpt lat="48.68659" lon="1.69419">
        <ele>149.3</ele>
        <time>2024-12-12T10:11:51Z</time>
      </trkpt>
      <trkpt lat="48.6866" lon="1.69433">
        <ele>149.4</ele>
        <time>2024-12-12T10:11:58Z</time>
      </trkpt>
      <trkpt lat="48.68663" lon="1.69447">
        <ele>149.3</ele>
        <time>2024-12-12T10:12:05Z</time>
      </trkpt>
      <trkpt lat="48.68662" lon="1.69461">
        <ele>149.2</ele>
        <time>2024-12-12T10:12:13Z</time>
      </trkpt>
      <trkpt lat="48.68663" lon="1.69476">
        <ele>149</ele>
        <time>2024-12-12T10:12:20Z</time>
      </trkpt>
      <trkpt lat="48.68664" lon="1.69491">
        <ele>148.5</ele>
        <time>2024-12-12T10:12:27Z</time>
      </trkpt>
      <trkpt lat="48.68665" lon="1.69506">
        <ele>148.1</ele>
        <time>2024-12-12T10:12:36Z</time>
      </trkpt>
      <trkpt lat="48.68667" lon="1.69521">
        <ele>148</ele>
        <time>2024-12-12T10:12:43Z</time>
      </trkpt>
      <trkpt lat="48.68666" lon="1.69536">
        <ele>148</ele>
        <time>2024-12-12T10:12:50Z</time>
      </trkpt>
      <trkpt lat="48.68666" lon="1.6955">
        <ele>148</ele>
        <time>2024-12-12T10:12:56Z</time>
      </trkpt>
      <trkpt lat="48.68667" lon="1.69566">
        <ele>148</ele>
        <time>2024-12-12T10:13:03Z</time>
      </trkpt>
      <trkpt lat="48.68667" lon="1.69579">
        <ele>148</ele>
        <time>2024-12-12T10:13:09Z</time>
      </trkpt>
      <trkpt lat="48.68668" lon="1.69594">
        <ele>148</ele>
        <time>2024-12-12T10:13:16Z</time>
      </trkpt>
      <trkpt lat="48.68667" lon="1.6961">
        <ele>148</ele>
        <time>2024-12-12T10:13:23Z</time>
      </trkpt>
      <trkpt lat="48.68667" lon="1.69625">
        <ele>148</ele>
        <time>2024-12-12T10:13:30Z</time>
      </trkpt>
      <trkpt lat="48.68669" lon="1.69641">
        <ele>148.2</ele>
        <time>2024-12-12T10:13:36Z</time>
      </trkpt>
      <trkpt lat="48.6867" lon="1.69657">
        <ele>148.8</ele>
        <time>2024-12-12T10:13:43Z</time>
      </trkpt>
      <trkpt lat="48.68668" lon="1.6967">
        <ele>149.2</ele>
        <time>2024-12-12T10:13:50Z</time>
      </trkpt>
      <trkpt lat="48.68669" lon="1.69685">
        <ele>149.8</ele>
        <time>2024-12-12T10:13:57Z</time>
      </trkpt>
      <trkpt lat="48.68672" lon="1.69698">
        <ele>150.4</ele>
        <time>2024-12-12T10:14:03Z</time>
      </trkpt>
      <trkpt lat="48.68672" lon="1.69712">
        <ele>150.5</ele>
        <time>2024-12-12T10:14:09Z</time>
      </trkpt>
      <trkpt lat="48.68672" lon="1.69727">
        <ele>150.8</ele>
        <time>2024-12-12T10:14:15Z</time>
      </trkpt>
      <trkpt lat="48.68672" lon="1.69741">
        <ele>151.4</ele>
        <time>2024-12-12T10:14:22Z</time>
      </trkpt>
      <trkpt lat="48.68674" lon="1.69755">
        <ele>152.2</ele>
        <time>2024-12-12T10:14:29Z</time>
      </trkpt>
      <trkpt lat="48.68675" lon="1.69769">
        <ele>152.9</ele>
        <time>2024-12-12T10:14:36Z</time>
      </trkpt>
      <trkpt lat="48.68676" lon="1.69784">
        <ele>153.6</ele>
        <time>2024-12-12T10:14:44Z</time>
      </trkpt>
      <trkpt lat="48.68678" lon="1.69799">
        <ele>154.7</ele>
        <time>2024-12-12T10:14:53Z</time>
      </trkpt>
      <trkpt lat="48.6868" lon="1.69814">
        <ele>155.5</ele>
        <time>2024-12-12T10:15:01Z</time>
      </trkpt>
      <trkpt lat="48.68679" lon="1.69828">
        <ele>155.7</ele>
        <time>2024-12-12T10:15:09Z</time>
      </trkpt>
      <trkpt lat="48.68683" lon="1.69842">
        <ele>156.5</ele>
        <time>2024-12-12T10:15:17Z</time>
      </trkpt>
      <trkpt lat="48.68687" lon="1.69857">
        <ele>157.1</ele>
        <time>2024-12-12T10:15:23Z</time>
      </trkpt>
      <trkpt lat="48.68693" lon="1.69867">
        <ele>158.1</ele>
        <time>2024-12-12T10:15:28Z</time>
      </trkpt>
      <trkpt lat="48.68701" lon="1.69875">
        <ele>159.2</ele>
        <time>2024-12-12T10:15:34Z</time>
      </trkpt>
      <trkpt lat="48.68709" lon="1.69885">
        <ele>160.1</ele>
        <time>2024-12-12T10:15:42Z</time>
      </trkpt>
      <trkpt lat="48.68718" lon="1.69893">
        <ele>160.9</ele>
        <time>2024-12-12T10:15:49Z</time>
      </trkpt>
      <trkpt lat="48.68726" lon="1.69901">
        <ele>161.8</ele>
        <time>2024-12-12T10:15:59Z</time>
      </trkpt>
      <trkpt lat="48.68729" lon="1.69915">
        <ele>162.4</ele>
        <time>2024-12-12T10:16:11Z</time>
      </trkpt>
      <trkpt lat="48.68731" lon="1.69929">
        <ele>163.4</ele>
        <time>2024-12-12T10:16:20Z</time>
      </trkpt>
      <trkpt lat="48.6873" lon="1.69943">
        <ele>164.2</ele>
        <time>2024-12-12T10:16:27Z</time>
      </trkpt>
      <trkpt lat="48.68728" lon="1.69957">
        <ele>165</ele>
        <time>2024-12-12T10:16:35Z</time>
      </trkpt>
      <trkpt lat="48.68729" lon="1.69971">
        <ele>165.9</ele>
        <time>2024-12-12T10:16:43Z</time>
      </trkpt>
      <trkpt lat="48.68729" lon="1.69985">
        <ele>166.3</ele>
        <time>2024-12-12T10:16:50Z</time>
      </trkpt>
      <trkpt lat="48.68728" lon="1.70001">
        <ele>166.8</ele>
        <time>2024-12-12T10:16:58Z</time>
      </trkpt>
      <trkpt lat="48.68728" lon="1.70016">
        <ele>166.9</ele>
        <time>2024-12-12T10:17:06Z</time>
      </trkpt>
      <trkpt lat="48.68727" lon="1.70031">
        <ele>167.1</ele>
        <time>2024-12-12T10:17:13Z</time>
      </trkpt>
      <trkpt lat="48.68727" lon="1.70045">
        <ele>167.6</ele>
        <time>2024-12-12T10:17:20Z</time>
      </trkpt>
      <trkpt lat="48.68727" lon="1.7006">
        <ele>168</ele>
        <time>2024-12-12T10:17:27Z</time>
      </trkpt>
      <trkpt lat="48.68728" lon="1.70074">
        <ele>168</ele>
        <time>2024-12-12T10:17:36Z</time>
      </trkpt>
      <trkpt lat="48.68726" lon="1.70088">
        <ele>168</ele>
        <time>2024-12-12T10:17:45Z</time>
      </trkpt>
      <trkpt lat="48.68724" lon="1.70103">
        <ele>168</ele>
        <time>2024-12-12T10:17:53Z</time>
      </trkpt>
      <trkpt lat="48.68724" lon="1.70118">
        <ele>168</ele>
        <time>2024-12-12T10:18:01Z</time>
      </trkpt>
      <trkpt lat="48.68724" lon="1.70132">
        <ele>168</ele>
        <time>2024-12-12T10:18:08Z</time>
      </trkpt>
      <trkpt lat="48.68722" lon="1.70148">
        <ele>168</ele>
        <time>2024-12-12T10:18:15Z</time>
      </trkpt>
      <trkpt lat="48.6872" lon="1.70163">
        <ele>167.9</ele>
        <time>2024-12-12T10:18:22Z</time>
      </trkpt>
      <trkpt lat="48.68719" lon="1.70177">
        <ele>167.8</ele>
        <time>2024-12-12T10:18:30Z</time>
      </trkpt>
      <trkpt lat="48.68718" lon="1.70192">
        <ele>167.7</ele>
        <time>2024-12-12T10:18:38Z</time>
      </trkpt>
      <trkpt lat="48.68715" lon="1.70207">
        <ele>167.6</ele>
        <time>2024-12-12T10:18:45Z</time>
      </trkpt>
      <trkpt lat="48.68713" lon="1.70221">
        <ele>167.7</ele>
        <time>2024-12-12T10:18:53Z</time>
      </trkpt>
      <trkpt lat="48.68712" lon="1.70235">
        <ele>168.1</ele>
        <time>2024-12-12T10:19:00Z</time>
      </trkpt>
      <trkpt lat="48.68711" lon="1.70251">
        <ele>168.6</ele>
        <time>2024-12-12T10:19:08Z</time>
      </trkpt>
      <trkpt lat="48.6871" lon="1.70264">
        <ele>168.8</ele>
        <time>2024-12-12T10:19:14Z</time>
      </trkpt>
      <trkpt lat="48.6871" lon="1.7028">
        <ele>169.1</ele>
        <time>2024-12-12T10:19:20Z</time>
      </trkpt>
      <trkpt lat="48.68711" lon="1.70294">
        <ele>169.6</ele>
        <time>2024-12-12T10:19:27Z</time>
      </trkpt>
      <trkpt lat="48.68709" lon="1.70309">
        <ele>170</ele>
        <time>2024-12-12T10:19:35Z</time>
      </trkpt>
      <trkpt lat="48.68708" lon="1.70323">
        <ele>170</ele>
        <time>2024-12-12T10:19:41Z</time>
      </trkpt>
      <trkpt lat="48.68707" lon="1.70337">
        <ele>170</ele>
        <time>2024-12-12T10:19:47Z</time>
      </trkpt>
      <trkpt lat="48.68705" lon="1.70351">
        <ele>170</ele>
        <time>2024-12-12T10:19:53Z</time>
      </trkpt>
      <trkpt lat="48.68704" lon="1.70366">
        <ele>170.1</ele>
        <time>2024-12-12T10:20:00Z</time>
      </trkpt>
      <trkpt lat="48.68703" lon="1.7038">
        <ele>170.2</ele>
        <time>2024-12-12T10:20:07Z</time>
      </trkpt>
      <trkpt lat="48.68695" lon="1.70388">
        <ele>170</ele>
        <time>2024-12-12T10:20:15Z</time>
      </trkpt>
      <trkpt lat="48.68692" lon="1.70402">
        <ele>170</ele>
        <time>2024-12-12T10:20:21Z</time>
      </trkpt>
      <trkpt lat="48.68688" lon="1.70416">
        <ele>170</ele>
        <time>2024-12-12T10:20:29Z</time>
      </trkpt>
      <trkpt lat="48.68686" lon="1.70429">
        <ele>170</ele>
        <time>2024-12-12T10:21:15Z</time>
      </trkpt>
      <trkpt lat="48.68682" lon="1.70443">
        <ele>170</ele>
        <time>2024-12-12T10:23:35Z</time>
      </trkpt>
      <trkpt lat="48.68677" lon="1.70454">
        <ele>170.1</ele>
        <time>2024-12-12T10:23:42Z</time>
      </trkpt>
      <trkpt lat="48.68672" lon="1.70466">
        <ele>170.1</ele>
        <time>2024-12-12T10:23:49Z</time>
      </trkpt>
      <trkpt lat="48.68667" lon="1.7048">
        <ele>170</ele>
        <time>2024-12-12T10:23:57Z</time>
      </trkpt>
      <trkpt lat="48.68662" lon="1.70493">
        <ele>170</ele>
        <time>2024-12-12T10:24:04Z</time>
      </trkpt>
      <trkpt lat="48.68656" lon="1.70505">
        <ele>170</ele>
        <time>2024-12-12T10:24:11Z</time>
      </trkpt>
      <trkpt lat="48.68652" lon="1.70519">
        <ele>170</ele>
        <time>2024-12-12T10:24:18Z</time>
      </trkpt>
      <trkpt lat="48.68648" lon="1.70532">
        <ele>170</ele>
        <time>2024-12-12T10:24:25Z</time>
      </trkpt>
      <trkpt lat="48.68643" lon="1.70545">
        <ele>170</ele>
        <time>2024-12-12T10:24:32Z</time>
      </trkpt>
      <trkpt lat="48.68639" lon="1.70559">
        <ele>170</ele>
        <time>2024-12-12T10:24:39Z</time>
      </trkpt>
      <trkpt lat="48.68635" lon="1.70572">
        <ele>169.9</ele>
        <time>2024-12-12T10:24:45Z</time>
      </trkpt>
      <trkpt lat="48.68631" lon="1.70585">
        <ele>169.7</ele>
        <time>2024-12-12T10:24:51Z</time>
      </trkpt>
      <trkpt lat="48.68627" lon="1.70598">
        <ele>169.3</ele>
        <time>2024-12-12T10:24:57Z</time>
      </trkpt>
      <trkpt lat="48.68623" lon="1.7061">
        <ele>169</ele>
        <time>2024-12-12T10:25:03Z</time>
      </trkpt>
      <trkpt lat="48.68617" lon="1.70621">
        <ele>169</ele>
        <time>2024-12-12T10:25:09Z</time>
      </trkpt>
      <trkpt lat="48.68611" lon="1.70634">
        <ele>169</ele>
        <time>2024-12-12T10:25:16Z</time>
      </trkpt>
      <trkpt lat="48.68606" lon="1.70645">
        <ele>168.8</ele>
        <time>2024-12-12T10:25:23Z</time>
      </trkpt>
      <trkpt lat="48.68598" lon="1.70655">
        <ele>168.5</ele>
        <time>2024-12-12T10:25:31Z</time>
      </trkpt>
      <trkpt lat="48.6859" lon="1.70665">
        <ele>168.2</ele>
        <time>2024-12-12T10:25:39Z</time>
      </trkpt>
      <trkpt lat="48.68582" lon="1.70674">
        <ele>168.2</ele>
        <time>2024-12-12T10:25:46Z</time>
      </trkpt>
      <trkpt lat="48.68576" lon="1.70685">
        <ele>168.4</ele>
        <time>2024-12-12T10:25:52Z</time>
      </trkpt>
      <trkpt lat="48.68568" lon="1.70694">
        <ele>168.4</ele>
        <time>2024-12-12T10:25:58Z</time>
      </trkpt>
      <trkpt lat="48.68561" lon="1.70703">
        <ele>168.5</ele>
        <time>2024-12-12T10:26:04Z</time>
      </trkpt>
      <trkpt lat="48.68554" lon="1.70713">
        <ele>168.6</ele>
        <time>2024-12-12T10:26:10Z</time>
      </trkpt>
      <trkpt lat="48.68546" lon="1.70722">
        <ele>168.7</ele>
        <time>2024-12-12T10:26:16Z</time>
      </trkpt>
      <trkpt lat="48.68539" lon="1.70731">
        <ele>168.6</ele>
        <time>2024-12-12T10:26:23Z</time>
      </trkpt>
      <trkpt lat="48.6853" lon="1.70736">
        <ele>168.5</ele>
        <time>2024-12-12T10:26:31Z</time>
      </trkpt>
      <trkpt lat="48.68522" lon="1.70743">
        <ele>168.8</ele>
        <time>2024-12-12T10:26:38Z</time>
      </trkpt>
      <trkpt lat="48.68513" lon="1.70752">
        <ele>169</ele>
        <time>2024-12-12T10:26:44Z</time>
      </trkpt>
      <trkpt lat="48.68506" lon="1.70763">
        <ele>169.1</ele>
        <time>2024-12-12T10:26:50Z</time>
      </trkpt>
      <trkpt lat="48.68498" lon="1.70769">
        <ele>168.9</ele>
        <time>2024-12-12T10:26:56Z</time>
      </trkpt>
      <trkpt lat="48.6849" lon="1.70779">
        <ele>168.7</ele>
        <time>2024-12-12T10:27:02Z</time>
      </trkpt>
      <trkpt lat="48.68482" lon="1.70788">
        <ele>168.6</ele>
        <time>2024-12-12T10:27:08Z</time>
      </trkpt>
      <trkpt lat="48.68475" lon="1.70796">
        <ele>168.7</ele>
        <time>2024-12-12T10:27:13Z</time>
      </trkpt>
      <trkpt lat="48.68468" lon="1.70807">
        <ele>168.9</ele>
        <time>2024-12-12T10:27:18Z</time>
      </trkpt>
      <trkpt lat="48.68463" lon="1.70819">
        <ele>168.8</ele>
        <time>2024-12-12T10:27:24Z</time>
      </trkpt>
      <trkpt lat="48.68456" lon="1.7083">
        <ele>168.9</ele>
        <time>2024-12-12T10:27:31Z</time>
      </trkpt>
      <trkpt lat="48.68448" lon="1.70837">
        <ele>169</ele>
        <time>2024-12-12T10:27:36Z</time>
      </trkpt>
      <trkpt lat="48.6844" lon="1.70846">
        <ele>169</ele>
        <time>2024-12-12T10:27:43Z</time>
      </trkpt>
      <trkpt lat="48.68432" lon="1.70855">
        <ele>169</ele>
        <time>2024-12-12T10:27:51Z</time>
      </trkpt>
      <trkpt lat="48.68426" lon="1.70865">
        <ele>169</ele>
        <time>2024-12-12T10:27:57Z</time>
      </trkpt>
      <trkpt lat="48.68419" lon="1.70877">
        <ele>169</ele>
        <time>2024-12-12T10:28:03Z</time>
      </trkpt>
      <trkpt lat="48.68412" lon="1.70886">
        <ele>169</ele>
        <time>2024-12-12T10:28:10Z</time>
      </trkpt>
      <trkpt lat="48.68405" lon="1.70896">
        <ele>169</ele>
        <time>2024-12-12T10:28:17Z</time>
      </trkpt>
      <trkpt lat="48.68399" lon="1.70907">
        <ele>169</ele>
        <time>2024-12-12T10:28:25Z</time>
      </trkpt>
      <trkpt lat="48.68405" lon="1.70919">
        <ele>169</ele>
        <time>2024-12-12T10:28:35Z</time>
      </trkpt>
      <trkpt lat="48.68413" lon="1.70925">
        <ele>169</ele>
        <time>2024-12-12T10:28:41Z</time>
      </trkpt>
      <trkpt lat="48.68422" lon="1.70931">
        <ele>169</ele>
        <time>2024-12-12T10:28:46Z</time>
      </trkpt>
      <trkpt lat="48.68431" lon="1.70938">
        <ele>169</ele>
        <time>2024-12-12T10:28:54Z</time>
      </trkpt>
      <trkpt lat="48.68439" lon="1.70944">
        <ele>169</ele>
        <time>2024-12-12T10:29:00Z</time>
      </trkpt>
      <trkpt lat="48.68448" lon="1.70949">
        <ele>169</ele>
        <time>2024-12-12T10:29:04Z</time>
      </trkpt>
      <trkpt lat="48.68457" lon="1.70953">
        <ele>169</ele>
        <time>2024-12-12T10:29:09Z</time>
      </trkpt>
      <trkpt lat="48.68465" lon="1.70961">
        <ele>169</ele>
        <time>2024-12-12T10:29:15Z</time>
      </trkpt>
      <trkpt lat="48.68473" lon="1.70969">
        <ele>169</ele>
        <time>2024-12-12T10:29:21Z</time>
      </trkpt>
      <trkpt lat="48.68483" lon="1.70974">
        <ele>169.4</ele>
        <time>2024-12-12T10:29:28Z</time>
      </trkpt>
      <trkpt lat="48.68492" lon="1.70981">
        <ele>169.5</ele>
        <time>2024-12-12T10:29:35Z</time>
      </trkpt>
      <trkpt lat="48.68501" lon="1.7099">
        <ele>169.4</ele>
        <time>2024-12-12T10:29:43Z</time>
      </trkpt>
      <trkpt lat="48.68509" lon="1.70997">
        <ele>169.4</ele>
        <time>2024-12-12T10:29:49Z</time>
      </trkpt>
      <trkpt lat="48.68517" lon="1.71005">
        <ele>169.6</ele>
        <time>2024-12-12T10:29:57Z</time>
      </trkpt>
      <trkpt lat="48.68526" lon="1.71012">
        <ele>169.9</ele>
        <time>2024-12-12T10:30:04Z</time>
      </trkpt>
      <trkpt lat="48.68534" lon="1.71019">
        <ele>170</ele>
        <time>2024-12-12T10:30:11Z</time>
      </trkpt>
      <trkpt lat="48.68543" lon="1.71025">
        <ele>170</ele>
        <time>2024-12-12T10:30:18Z</time>
      </trkpt>
      <trkpt lat="48.68552" lon="1.71029">
        <ele>170</ele>
        <time>2024-12-12T10:30:24Z</time>
      </trkpt>
      <trkpt lat="48.68561" lon="1.71036">
        <ele>170</ele>
        <time>2024-12-12T10:30:30Z</time>
      </trkpt>
      <trkpt lat="48.6857" lon="1.71042">
        <ele>170</ele>
        <time>2024-12-12T10:30:37Z</time>
      </trkpt>
      <trkpt lat="48.68579" lon="1.71047">
        <ele>170</ele>
        <time>2024-12-12T10:30:43Z</time>
      </trkpt>
      <trkpt lat="48.68587" lon="1.71053">
        <ele>170</ele>
        <time>2024-12-12T10:30:49Z</time>
      </trkpt>
      <trkpt lat="48.68596" lon="1.71058">
        <ele>170</ele>
        <time>2024-12-12T10:30:55Z</time>
      </trkpt>
      <trkpt lat="48.68605" lon="1.71065">
        <ele>170</ele>
        <time>2024-12-12T10:31:01Z</time>
      </trkpt>
      <trkpt lat="48.68613" lon="1.7107">
        <ele>170</ele>
        <time>2024-12-12T10:31:07Z</time>
      </trkpt>
      <trkpt lat="48.68621" lon="1.71077">
        <ele>170</ele>
        <time>2024-12-12T10:31:13Z</time>
      </trkpt>
      <trkpt lat="48.68629" lon="1.71084">
        <ele>170</ele>
        <time>2024-12-12T10:31:18Z</time>
      </trkpt>
      <trkpt lat="48.68638" lon="1.7109">
        <ele>170</ele>
        <time>2024-12-12T10:31:24Z</time>
      </trkpt>
      <trkpt lat="48.68647" lon="1.71098">
        <ele>170</ele>
        <time>2024-12-12T10:31:30Z</time>
      </trkpt>
      <trkpt lat="48.68654" lon="1.71107">
        <ele>170</ele>
        <time>2024-12-12T10:31:36Z</time>
      </trkpt>
      <trkpt lat="48.68662" lon="1.71117">
        <ele>170</ele>
        <time>2024-12-12T10:31:43Z</time>
      </trkpt>
      <trkpt lat="48.6867" lon="1.71124">
        <ele>170</ele>
        <time>2024-12-12T10:31:48Z</time>
      </trkpt>
      <trkpt lat="48.68678" lon="1.71132">
        <ele>170</ele>
        <time>2024-12-12T10:31:55Z</time>
      </trkpt>
      <trkpt lat="48.68687" lon="1.7114">
        <ele>170</ele>
        <time>2024-12-12T10:32:02Z</time>
      </trkpt>
      <trkpt lat="48.68693" lon="1.71151">
        <ele>170</ele>
        <time>2024-12-12T10:32:09Z</time>
      </trkpt>
      <trkpt lat="48.68702" lon="1.71159">
        <ele>170</ele>
        <time>2024-12-12T10:32:15Z</time>
      </trkpt>
      <trkpt lat="48.68711" lon="1.71167">
        <ele>170</ele>
        <time>2024-12-12T10:32:21Z</time>
      </trkpt>
      <trkpt lat="48.6872" lon="1.71174">
        <ele>169.7</ele>
        <time>2024-12-12T10:32:28Z</time>
      </trkpt>
      <trkpt lat="48.68728" lon="1.71181">
        <ele>169.4</ele>
        <time>2024-12-12T10:32:36Z</time>
      </trkpt>
      <trkpt lat="48.68735" lon="1.71192">
        <ele>169</ele>
        <time>2024-12-12T10:32:43Z</time>
      </trkpt>
      <trkpt lat="48.68742" lon="1.71201">
        <ele>169</ele>
        <time>2024-12-12T10:32:49Z</time>
      </trkpt>
      <trkpt lat="48.68749" lon="1.7121">
        <ele>169</ele>
        <time>2024-12-12T10:32:55Z</time>
      </trkpt>
      <trkpt lat="48.68757" lon="1.71217">
        <ele>168.8</ele>
        <time>2024-12-12T10:33:02Z</time>
      </trkpt>
      <trkpt lat="48.68763" lon="1.71229">
        <ele>168.4</ele>
        <time>2024-12-12T10:33:10Z</time>
      </trkpt>
      <trkpt lat="48.68769" lon="1.7124">
        <ele>168.1</ele>
        <time>2024-12-12T10:33:17Z</time>
      </trkpt>
      <trkpt lat="48.68777" lon="1.71251">
        <ele>168</ele>
        <time>2024-12-12T10:33:23Z</time>
      </trkpt>
      <trkpt lat="48.68784" lon="1.71262">
        <ele>168</ele>
        <time>2024-12-12T10:33:30Z</time>
      </trkpt>
      <trkpt lat="48.68792" lon="1.71272">
        <ele>168</ele>
        <time>2024-12-12T10:33:37Z</time>
      </trkpt>
      <trkpt lat="48.68799" lon="1.71281">
        <ele>167.9</ele>
        <time>2024-12-12T10:33:43Z</time>
      </trkpt>
      <trkpt lat="48.68807" lon="1.7129">
        <ele>167.5</ele>
        <time>2024-12-12T10:33:49Z</time>
      </trkpt>
      <trkpt lat="48.68813" lon="1.71302">
        <ele>167.1</ele>
        <time>2024-12-12T10:33:56Z</time>
      </trkpt>
      <trkpt lat="48.68819" lon="1.71312">
        <ele>167</ele>
        <time>2024-12-12T10:34:02Z</time>
      </trkpt>
      <trkpt lat="48.68825" lon="1.71325">
        <ele>167</ele>
        <time>2024-12-12T10:34:08Z</time>
      </trkpt>
      <trkpt lat="48.68833" lon="1.71334">
        <ele>167</ele>
        <time>2024-12-12T10:34:14Z</time>
      </trkpt>
      <trkpt lat="48.68838" lon="1.71347">
        <ele>166.9</ele>
        <time>2024-12-12T10:34:21Z</time>
      </trkpt>
      <trkpt lat="48.68844" lon="1.71358">
        <ele>166.7</ele>
        <time>2024-12-12T10:34:27Z</time>
      </trkpt>
      <trkpt lat="48.68849" lon="1.71368">
        <ele>166.3</ele>
        <time>2024-12-12T10:34:33Z</time>
      </trkpt>
      <trkpt lat="48.68857" lon="1.71378">
        <ele>166.1</ele>
        <time>2024-12-12T10:34:39Z</time>
      </trkpt>
      <trkpt lat="48.68862" lon="1.71392">
        <ele>166</ele>
        <time>2024-12-12T10:34:46Z</time>
      </trkpt>
      <trkpt lat="48.68868" lon="1.71403">
        <ele>165.9</ele>
        <time>2024-12-12T10:34:53Z</time>
      </trkpt>
      <trkpt lat="48.68873" lon="1.71414">
        <ele>165.6</ele>
        <time>2024-12-12T10:34:59Z</time>
      </trkpt>
      <trkpt lat="48.68879" lon="1.71426">
        <ele>165.3</ele>
        <time>2024-12-12T10:35:06Z</time>
      </trkpt>
      <trkpt lat="48.68886" lon="1.71437">
        <ele>165.1</ele>
        <time>2024-12-12T10:35:12Z</time>
      </trkpt>
      <trkpt lat="48.68893" lon="1.71447">
        <ele>165</ele>
        <time>2024-12-12T10:35:18Z</time>
      </trkpt>
      <trkpt lat="48.68899" lon="1.71457">
        <ele>165</ele>
        <time>2024-12-12T10:35:24Z</time>
      </trkpt>
      <trkpt lat="48.68904" lon="1.7147">
        <ele>165</ele>
        <time>2024-12-12T10:35:32Z</time>
      </trkpt>
      <trkpt lat="48.68909" lon="1.71482">
        <ele>165</ele>
        <time>2024-12-12T10:35:39Z</time>
      </trkpt>
      <trkpt lat="48.68916" lon="1.71492">
        <ele>165</ele>
        <time>2024-12-12T10:35:45Z</time>
      </trkpt>
      <trkpt lat="48.68923" lon="1.715">
        <ele>164.8</ele>
        <time>2024-12-12T10:35:51Z</time>
      </trkpt>
      <trkpt lat="48.6893" lon="1.71509">
        <ele>164.5</ele>
        <time>2024-12-12T10:35:57Z</time>
      </trkpt>
      <trkpt lat="48.68936" lon="1.7152">
        <ele>164.3</ele>
        <time>2024-12-12T10:36:03Z</time>
      </trkpt>
      <trkpt lat="48.68943" lon="1.7153">
        <ele>164.1</ele>
        <time>2024-12-12T10:36:09Z</time>
      </trkpt>
      <trkpt lat="48.6895" lon="1.71538">
        <ele>164</ele>
        <time>2024-12-12T10:36:15Z</time>
      </trkpt>
      <trkpt lat="48.68957" lon="1.7155">
        <ele>164</ele>
        <time>2024-12-12T10:36:24Z</time>
      </trkpt>
      <trkpt lat="48.68964" lon="1.71562">
        <ele>163.8</ele>
        <time>2024-12-12T10:36:31Z</time>
      </trkpt>
      <trkpt lat="48.6897" lon="1.71573">
        <ele>163.4</ele>
        <time>2024-12-12T10:36:37Z</time>
      </trkpt>
      <trkpt lat="48.68975" lon="1.71585">
        <ele>163</ele>
        <time>2024-12-12T10:36:43Z</time>
      </trkpt>
      <trkpt lat="48.68982" lon="1.71595">
        <ele>163</ele>
        <time>2024-12-12T10:36:49Z</time>
      </trkpt>
      <trkpt lat="48.68991" lon="1.71602">
        <ele>163</ele>
        <time>2024-12-12T10:36:58Z</time>
      </trkpt>
      <trkpt lat="48.68995" lon="1.71615">
        <ele>163</ele>
        <time>2024-12-12T10:37:05Z</time>
      </trkpt>
      <trkpt lat="48.69002" lon="1.71626">
        <ele>162.9</ele>
        <time>2024-12-12T10:37:11Z</time>
      </trkpt>
      <trkpt lat="48.69007" lon="1.71638">
        <ele>162.7</ele>
        <time>2024-12-12T10:37:17Z</time>
      </trkpt>
      <trkpt lat="48.69012" lon="1.71651">
        <ele>162.6</ele>
        <time>2024-12-12T10:37:23Z</time>
      </trkpt>
      <trkpt lat="48.69019" lon="1.71663">
        <ele>162.3</ele>
        <time>2024-12-12T10:37:30Z</time>
      </trkpt>
      <trkpt lat="48.69026" lon="1.71673">
        <ele>162.1</ele>
        <time>2024-12-12T10:37:36Z</time>
      </trkpt>
      <trkpt lat="48.69032" lon="1.71686">
        <ele>162</ele>
        <time>2024-12-12T10:37:43Z</time>
      </trkpt>
      <trkpt lat="48.69037" lon="1.71698">
        <ele>162</ele>
        <time>2024-12-12T10:37:49Z</time>
      </trkpt>
      <trkpt lat="48.69042" lon="1.7171">
        <ele>162</ele>
        <time>2024-12-12T10:37:55Z</time>
      </trkpt>
      <trkpt lat="48.69048" lon="1.71722">
        <ele>162</ele>
        <time>2024-12-12T10:38:01Z</time>
      </trkpt>
      <trkpt lat="48.69052" lon="1.71734">
        <ele>161.6</ele>
        <time>2024-12-12T10:38:07Z</time>
      </trkpt>
      <trkpt lat="48.69057" lon="1.71747">
        <ele>161.1</ele>
        <time>2024-12-12T10:38:15Z</time>
      </trkpt>
      <trkpt lat="48.69062" lon="1.7176">
        <ele>161</ele>
        <time>2024-12-12T10:38:23Z</time>
      </trkpt>
      <trkpt lat="48.69063" lon="1.71775">
        <ele>161</ele>
        <time>2024-12-12T10:38:32Z</time>
      </trkpt>
      <trkpt lat="48.69067" lon="1.71788">
        <ele>161</ele>
        <time>2024-12-12T10:38:40Z</time>
      </trkpt>
      <trkpt lat="48.69073" lon="1.718">
        <ele>161</ele>
        <time>2024-12-12T10:38:47Z</time>
      </trkpt>
      <trkpt lat="48.69078" lon="1.71814">
        <ele>160.8</ele>
        <time>2024-12-12T10:38:54Z</time>
      </trkpt>
      <trkpt lat="48.69082" lon="1.71828">
        <ele>160.2</ele>
        <time>2024-12-12T10:39:01Z</time>
      </trkpt>
      <trkpt lat="48.6909" lon="1.71837">
        <ele>160</ele>
        <time>2024-12-12T10:39:10Z</time>
      </trkpt>
      <trkpt lat="48.69095" lon="1.7185">
        <ele>160</ele>
        <time>2024-12-12T10:39:17Z</time>
      </trkpt>
      <trkpt lat="48.691" lon="1.71863">
        <ele>160</ele>
        <time>2024-12-12T10:39:23Z</time>
      </trkpt>
      <trkpt lat="48.69104" lon="1.71876">
        <ele>160</ele>
        <time>2024-12-12T10:39:29Z</time>
      </trkpt>
      <trkpt lat="48.69106" lon="1.7189">
        <ele>160</ele>
        <time>2024-12-12T10:39:35Z</time>
      </trkpt>
      <trkpt lat="48.6911" lon="1.71905">
        <ele>160</ele>
        <time>2024-12-12T10:39:42Z</time>
      </trkpt>
      <trkpt lat="48.69114" lon="1.71919">
        <ele>159.9</ele>
        <time>2024-12-12T10:39:47Z</time>
      </trkpt>
      <trkpt lat="48.69119" lon="1.71932">
        <ele>159.7</ele>
        <time>2024-12-12T10:39:53Z</time>
      </trkpt>
      <trkpt lat="48.69124" lon="1.71945">
        <ele>159.5</ele>
        <time>2024-12-12T10:40:00Z</time>
      </trkpt>
      <trkpt lat="48.6913" lon="1.71957">
        <ele>159.2</ele>
        <time>2024-12-12T10:40:07Z</time>
      </trkpt>
      <trkpt lat="48.69131" lon="1.71972">
        <ele>159</ele>
        <time>2024-12-12T10:40:14Z</time>
      </trkpt>
      <trkpt lat="48.69134" lon="1.71986">
        <ele>159</ele>
        <time>2024-12-12T10:40:21Z</time>
      </trkpt>
      <trkpt lat="48.69139" lon="1.71999">
        <ele>159</ele>
        <time>2024-12-12T10:40:28Z</time>
      </trkpt>
      <trkpt lat="48.69143" lon="1.72013">
        <ele>159.1</ele>
        <time>2024-12-12T10:40:35Z</time>
      </trkpt>
      <trkpt lat="48.6915" lon="1.72025">
        <ele>159.3</ele>
        <time>2024-12-12T10:40:43Z</time>
      </trkpt>
      <trkpt lat="48.69154" lon="1.7204">
        <ele>159.7</ele>
        <time>2024-12-12T10:40:49Z</time>
      </trkpt>
      <trkpt lat="48.69161" lon="1.72049">
        <ele>160</ele>
        <time>2024-12-12T10:40:55Z</time>
      </trkpt>
      <trkpt lat="48.69166" lon="1.7206">
        <ele>160</ele>
        <time>2024-12-12T10:41:01Z</time>
      </trkpt>
      <trkpt lat="48.69172" lon="1.72072">
        <ele>160</ele>
        <time>2024-12-12T10:41:08Z</time>
      </trkpt>
      <trkpt lat="48.69178" lon="1.72082">
        <ele>160</ele>
        <time>2024-12-12T10:41:14Z</time>
      </trkpt>
      <trkpt lat="48.69183" lon="1.72094">
        <ele>160.2</ele>
        <time>2024-12-12T10:41:20Z</time>
      </trkpt>
      <trkpt lat="48.69189" lon="1.72106">
        <ele>160.7</ele>
        <time>2024-12-12T10:41:27Z</time>
      </trkpt>
      <trkpt lat="48.69195" lon="1.72118">
        <ele>161</ele>
        <time>2024-12-12T10:41:35Z</time>
      </trkpt>
      <trkpt lat="48.69203" lon="1.72127">
        <ele>161</ele>
        <time>2024-12-12T10:41:43Z</time>
      </trkpt>
      <trkpt lat="48.69212" lon="1.72134">
        <ele>161</ele>
        <time>2024-12-12T10:41:52Z</time>
      </trkpt>
      <trkpt lat="48.6922" lon="1.72138">
        <ele>161</ele>
        <time>2024-12-12T10:41:59Z</time>
      </trkpt>
      <trkpt lat="48.69229" lon="1.72144">
        <ele>161</ele>
        <time>2024-12-12T10:42:11Z</time>
      </trkpt>
      <trkpt lat="48.69237" lon="1.72153">
        <ele>161</ele>
        <time>2024-12-12T10:42:18Z</time>
      </trkpt>
      <trkpt lat="48.69244" lon="1.72163">
        <ele>161</ele>
        <time>2024-12-12T10:42:24Z</time>
      </trkpt>
      <trkpt lat="48.69247" lon="1.72177">
        <ele>161</ele>
        <time>2024-12-12T10:42:31Z</time>
      </trkpt>
      <trkpt lat="48.69253" lon="1.7219">
        <ele>160.9</ele>
        <time>2024-12-12T10:42:38Z</time>
      </trkpt>
      <trkpt lat="48.69259" lon="1.72202">
        <ele>160.5</ele>
        <time>2024-12-12T10:42:46Z</time>
      </trkpt>
      <trkpt lat="48.69267" lon="1.72212">
        <ele>160.1</ele>
        <time>2024-12-12T10:42:52Z</time>
      </trkpt>
      <trkpt lat="48.69274" lon="1.72222">
        <ele>160</ele>
        <time>2024-12-12T10:42:58Z</time>
      </trkpt>
      <trkpt lat="48.69281" lon="1.72231">
        <ele>160</ele>
        <time>2024-12-12T10:43:04Z</time>
      </trkpt>
      <trkpt lat="48.69289" lon="1.7224">
        <ele>160</ele>
        <time>2024-12-12T10:43:10Z</time>
      </trkpt>
      <trkpt lat="48.69296" lon="1.7225">
        <ele>160</ele>
        <time>2024-12-12T10:43:17Z</time>
      </trkpt>
      <trkpt lat="48.69302" lon="1.72261">
        <ele>160</ele>
        <time>2024-12-12T10:43:24Z</time>
      </trkpt>
      <trkpt lat="48.69308" lon="1.72273">
        <ele>160</ele>
        <time>2024-12-12T10:43:30Z</time>
      </trkpt>
      <trkpt lat="48.69317" lon="1.72278">
        <ele>160</ele>
        <time>2024-12-12T10:43:38Z</time>
      </trkpt>
      <trkpt lat="48.69323" lon="1.72289">
        <ele>160</ele>
        <time>2024-12-12T10:43:45Z</time>
      </trkpt>
      <trkpt lat="48.69331" lon="1.72298">
        <ele>160</ele>
        <time>2024-12-12T10:43:53Z</time>
      </trkpt>
      <trkpt lat="48.69336" lon="1.72311">
        <ele>160</ele>
        <time>2024-12-12T10:44:02Z</time>
      </trkpt>
      <trkpt lat="48.69341" lon="1.72323">
        <ele>160</ele>
        <time>2024-12-12T10:44:10Z</time>
      </trkpt>
      <trkpt lat="48.69346" lon="1.72337">
        <ele>160</ele>
        <time>2024-12-12T10:44:16Z</time>
      </trkpt>
      <trkpt lat="48.69352" lon="1.72348">
        <ele>160</ele>
        <time>2024-12-12T10:44:22Z</time>
      </trkpt>
      <trkpt lat="48.69355" lon="1.72362">
        <ele>160</ele>
        <time>2024-12-12T10:44:28Z</time>
      </trkpt>
      <trkpt lat="48.6936" lon="1.72374">
        <ele>160</ele>
        <time>2024-12-12T10:44:34Z</time>
      </trkpt>
      <trkpt lat="48.69366" lon="1.72386">
        <ele>160</ele>
        <time>2024-12-12T10:44:40Z</time>
      </trkpt>
      <trkpt lat="48.69373" lon="1.72397">
        <ele>160</ele>
        <time>2024-12-12T10:44:48Z</time>
      </trkpt>
      <trkpt lat="48.69377" lon="1.72411">
        <ele>160</ele>
        <time>2024-12-12T10:44:56Z</time>
      </trkpt>
      <trkpt lat="48.69378" lon="1.72425">
        <ele>160</ele>
        <time>2024-12-12T10:45:03Z</time>
      </trkpt>
      <trkpt lat="48.69385" lon="1.72435">
        <ele>160</ele>
        <time>2024-12-12T10:45:10Z</time>
      </trkpt>
      <trkpt lat="48.6939" lon="1.72446">
        <ele>160</ele>
        <time>2024-12-12T10:45:17Z</time>
      </trkpt>
      <trkpt lat="48.69398" lon="1.72456">
        <ele>160</ele>
        <time>2024-12-12T10:45:24Z</time>
      </trkpt>
      <trkpt lat="48.69405" lon="1.72464">
        <ele>160</ele>
        <time>2024-12-12T10:45:30Z</time>
      </trkpt>
      <trkpt lat="48.69411" lon="1.72476">
        <ele>160</ele>
        <time>2024-12-12T10:45:37Z</time>
      </trkpt>
      <trkpt lat="48.69418" lon="1.72487">
        <ele>160</ele>
        <time>2024-12-12T10:45:44Z</time>
      </trkpt>
      <trkpt lat="48.69427" lon="1.72494">
        <ele>160</ele>
        <time>2024-12-12T10:45:51Z</time>
      </trkpt>
      <trkpt lat="48.69431" lon="1.72507">
        <ele>160</ele>
        <time>2024-12-12T10:45:58Z</time>
      </trkpt>
      <trkpt lat="48.69437" lon="1.72519">
        <ele>160</ele>
        <time>2024-12-12T10:46:06Z</time>
      </trkpt>
      <trkpt lat="48.69442" lon="1.72532">
        <ele>160</ele>
        <time>2024-12-12T10:46:13Z</time>
      </trkpt>
      <trkpt lat="48.69448" lon="1.72544">
        <ele>160</ele>
        <time>2024-12-12T10:46:21Z</time>
      </trkpt>
      <trkpt lat="48.69451" lon="1.72557">
        <ele>160</ele>
        <time>2024-12-12T10:46:27Z</time>
      </trkpt>
      <trkpt lat="48.69459" lon="1.72568">
        <ele>160</ele>
        <time>2024-12-12T10:46:34Z</time>
      </trkpt>
      <trkpt lat="48.69465" lon="1.7258">
        <ele>160</ele>
        <time>2024-12-12T10:46:41Z</time>
      </trkpt>
      <trkpt lat="48.69469" lon="1.72594">
        <ele>160.3</ele>
        <time>2024-12-12T10:46:47Z</time>
      </trkpt>
      <trkpt lat="48.69475" lon="1.72604">
        <ele>160.7</ele>
        <time>2024-12-12T10:46:53Z</time>
      </trkpt>
      <trkpt lat="48.6948" lon="1.72616">
        <ele>160.6</ele>
        <time>2024-12-12T10:47:00Z</time>
      </trkpt>
      <trkpt lat="48.69487" lon="1.72626">
        <ele>160.2</ele>
        <time>2024-12-12T10:47:06Z</time>
      </trkpt>
      <trkpt lat="48.69493" lon="1.72639">
        <ele>160</ele>
        <time>2024-12-12T10:47:13Z</time>
      </trkpt>
      <trkpt lat="48.695" lon="1.72648">
        <ele>160</ele>
        <time>2024-12-12T10:47:19Z</time>
      </trkpt>
      <trkpt lat="48.69507" lon="1.72658">
        <ele>159.9</ele>
        <time>2024-12-12T10:47:27Z</time>
      </trkpt>
      <trkpt lat="48.69513" lon="1.72671">
        <ele>159.9</ele>
        <time>2024-12-12T10:47:34Z</time>
      </trkpt>
      <trkpt lat="48.69518" lon="1.72681">
        <ele>159.8</ele>
        <time>2024-12-12T10:47:42Z</time>
      </trkpt>
      <trkpt lat="48.6952" lon="1.72696">
        <ele>159.7</ele>
        <time>2024-12-12T10:47:50Z</time>
      </trkpt>
      <trkpt lat="48.69516" lon="1.72709">
        <ele>159.8</ele>
        <time>2024-12-12T10:47:58Z</time>
      </trkpt>
      <trkpt lat="48.69523" lon="1.72718">
        <ele>160</ele>
        <time>2024-12-12T10:49:53Z</time>
      </trkpt>
    </trkseg>
  </trk>
</gpx>